<?xml version="1.0" encoding="utf-8"?>
<gpx xmlns:xsi="http://www.w3.org/2001/XMLSchema-instance" xmlns:xsd="http://www.w3.org/2001/XMLSchema" version="1.1" creator="Shapelink.com" xmlns="http://www.topografix.com/GPX/1/1" xmlns:gpxtpx="http://www.garmin.com/xmlschemas/TrackPointExtension/v1">
  <metadata>
    <name>Cykling - Mtb 15.61 km, 2013-08-17</name>
    <desc></desc>
    <author><name>Alexander Engvall</name></author> 
    <time>2013-08-17T10:30:25Z</time>
  </metadata>
  <trk>
    <name>Cykling - Mtb 15.61 km, 2013-08-17</name>
    <trkseg>
      <trkpt lat="59.458659806309" lon="17.804490166118">
        <ele>28</ele>
        <time>2013-08-17T10:30:25Z</time>
      </trkpt>
      <trkpt lat="59.458559810242" lon="17.804476335983">
        <ele>28</ele>
        <time>2013-08-17T10:30:27Z</time>
      </trkpt>
      <trkpt lat="59.458510189394" lon="17.804462254391">
        <ele>28.6</ele>
        <time>2013-08-17T10:30:28Z</time>
      </trkpt>
      <trkpt lat="59.45845604232" lon="17.804439204166">
        <ele>28.6</ele>
        <time>2013-08-17T10:30:29Z</time>
      </trkpt>
      <trkpt lat="59.458292511451" lon="17.804385643825">
        <ele>28.6</ele>
        <time>2013-08-17T10:30:32Z</time>
      </trkpt>
      <trkpt lat="59.458182038009" lon="17.804396875571">
        <ele>28.6</ele>
        <time>2013-08-17T10:30:34Z</time>
      </trkpt>
      <trkpt lat="59.457931251561" lon="17.804397462304">
        <ele>28.6</ele>
        <time>2013-08-17T10:30:38Z</time>
      </trkpt>
      <trkpt lat="59.457678285819" lon="17.804537440034">
        <ele>28.6</ele>
        <time>2013-08-17T10:30:42Z</time>
      </trkpt>
      <trkpt lat="59.457619696338" lon="17.80457633205">
        <ele>28.6</ele>
        <time>2013-08-17T10:30:43Z</time>
      </trkpt>
      <trkpt lat="59.457566638911" lon="17.804623773604">
        <ele>28.6</ele>
        <time>2013-08-17T10:30:44Z</time>
      </trkpt>
      <trkpt lat="59.457420207118" lon="17.804810019422">
        <ele>28.6</ele>
        <time>2013-08-17T10:30:47Z</time>
      </trkpt>
      <trkpt lat="59.45722893216" lon="17.805220816341">
        <ele>28.6</ele>
        <time>2013-08-17T10:30:52Z</time>
      </trkpt>
      <trkpt lat="59.4571585242" lon="17.805360794071">
        <ele>28.6</ele>
        <time>2013-08-17T10:30:54Z</time>
      </trkpt>
      <trkpt lat="59.457045536188" lon="17.805433968058">
        <ele>28.6</ele>
        <time>2013-08-17T10:30:56Z</time>
      </trkpt>
      <trkpt lat="59.456863648958" lon="17.805372025817">
        <ele>28.6</ele>
        <time>2013-08-17T10:30:59Z</time>
      </trkpt>
      <trkpt lat="59.456800197975" lon="17.805341515701">
        <ele>28.6</ele>
        <time>2013-08-17T10:31:00Z</time>
      </trkpt>
      <trkpt lat="59.456506160923" lon="17.805138673721">
        <ele>29.2</ele>
        <time>2013-08-17T10:31:05Z</time>
      </trkpt>
      <trkpt lat="59.456447906718" lon="17.805098189144">
        <ele>29.6</ele>
        <time>2013-08-17T10:31:06Z</time>
      </trkpt>
      <trkpt lat="59.456388898142" lon="17.805055609092">
        <ele>30</ele>
        <time>2013-08-17T10:31:07Z</time>
      </trkpt>
      <trkpt lat="59.456328297005" lon="17.805010682108">
        <ele>30.4</ele>
        <time>2013-08-17T10:31:08Z</time>
      </trkpt>
      <trkpt lat="59.456266857678" lon="17.804965922762">
        <ele>30.8</ele>
        <time>2013-08-17T10:31:09Z</time>
      </trkpt>
      <trkpt lat="59.456021854741" lon="17.804776072727">
        <ele>30.8</ele>
        <time>2013-08-17T10:31:13Z</time>
      </trkpt>
      <trkpt lat="59.455644836879" lon="17.804446077324">
        <ele>30.8</ele>
        <time>2013-08-17T10:31:20Z</time>
      </trkpt>
      <trkpt lat="59.455541823328" lon="17.804359911392">
        <ele>30.2</ele>
        <time>2013-08-17T10:31:22Z</time>
      </trkpt>
      <trkpt lat="59.455489101177" lon="17.804322863394">
        <ele>29.8</ele>
        <time>2013-08-17T10:31:23Z</time>
      </trkpt>
      <trkpt lat="59.455436462845" lon="17.804287659414">
        <ele>29.4</ele>
        <time>2013-08-17T10:31:24Z</time>
      </trkpt>
      <trkpt lat="59.455386925816" lon="17.804262765171">
        <ele>28.8</ele>
        <time>2013-08-17T10:31:25Z</time>
      </trkpt>
      <trkpt lat="59.455344345764" lon="17.804246420466">
        <ele>28.4</ele>
        <time>2013-08-17T10:31:26Z</time>
      </trkpt>
      <trkpt lat="59.455298748228" lon="17.804228818476">
        <ele>28.4</ele>
        <time>2013-08-17T10:31:27Z</time>
      </trkpt>
      <trkpt lat="59.455139827404" lon="17.804241475145">
        <ele>28.4</ele>
        <time>2013-08-17T10:31:31Z</time>
      </trkpt>
      <trkpt lat="59.455086686158" lon="17.804254718547">
        <ele>28</ele>
        <time>2013-08-17T10:31:32Z</time>
      </trkpt>
      <trkpt lat="59.455028096677" lon="17.804266369388">
        <ele>27.6</ele>
        <time>2013-08-17T10:31:33Z</time>
      </trkpt>
      <trkpt lat="59.45496498097" lon="17.804282881731">
        <ele>27</ele>
        <time>2013-08-17T10:31:34Z</time>
      </trkpt>
      <trkpt lat="59.45490798405" lon="17.804308362707">
        <ele>26.6</ele>
        <time>2013-08-17T10:31:35Z</time>
      </trkpt>
      <trkpt lat="59.454849143112" lon="17.804337280262">
        <ele>26.2</ele>
        <time>2013-08-17T10:31:36Z</time>
      </trkpt>
      <trkpt lat="59.454602128519" lon="17.80453190798">
        <ele>26.2</ele>
        <time>2013-08-17T10:31:40Z</time>
      </trkpt>
      <trkpt lat="59.454253944393" lon="17.805018477275">
        <ele>26.2</ele>
        <time>2013-08-17T10:31:46Z</time>
      </trkpt>
      <trkpt lat="59.453851110279" lon="17.805701350668">
        <ele>26.2</ele>
        <time>2013-08-17T10:31:53Z</time>
      </trkpt>
      <trkpt lat="59.453412150176" lon="17.806420266231">
        <ele>26.2</ele>
        <time>2013-08-17T10:32:01Z</time>
      </trkpt>
      <trkpt lat="59.453362445509" lon="17.806509868742">
        <ele>26.2</ele>
        <time>2013-08-17T10:32:02Z</time>
      </trkpt>
      <trkpt lat="59.453256917388" lon="17.80683357772">
        <ele>26.2</ele>
        <time>2013-08-17T10:32:05Z</time>
      </trkpt>
      <trkpt lat="59.453331516298" lon="17.807090482955">
        <ele>26.2</ele>
        <time>2013-08-17T10:32:07Z</time>
      </trkpt>
      <trkpt lat="59.453375185997" lon="17.80721663055">
        <ele>25.8</ele>
        <time>2013-08-17T10:32:08Z</time>
      </trkpt>
      <trkpt lat="59.453409803244" lon="17.807346130905">
        <ele>25.4</ele>
        <time>2013-08-17T10:32:09Z</time>
      </trkpt>
      <trkpt lat="59.453442995568" lon="17.807471859405">
        <ele>25</ele>
        <time>2013-08-17T10:32:10Z</time>
      </trkpt>
      <trkpt lat="59.453476858444" lon="17.80759213967">
        <ele>24.6</ele>
        <time>2013-08-17T10:32:11Z</time>
      </trkpt>
      <trkpt lat="59.453514744632" lon="17.8077069717">
        <ele>24.2</ele>
        <time>2013-08-17T10:32:12Z</time>
      </trkpt>
      <trkpt lat="59.453562102367" lon="17.807813757106">
        <ele>24.2</ele>
        <time>2013-08-17T10:32:13Z</time>
      </trkpt>
      <trkpt lat="59.453688836695" lon="17.807996398707">
        <ele>24.2</ele>
        <time>2013-08-17T10:32:15Z</time>
      </trkpt>
      <trkpt lat="59.453813224091" lon="17.808159929576">
        <ele>24.2</ele>
        <time>2013-08-17T10:32:17Z</time>
      </trkpt>
      <trkpt lat="59.453910370312" lon="17.808365621402">
        <ele>24.2</ele>
        <time>2013-08-17T10:32:19Z</time>
      </trkpt>
      <trkpt lat="59.453996620063" lon="17.808590172503">
        <ele>24.2</ele>
        <time>2013-08-17T10:32:21Z</time>
      </trkpt>
      <trkpt lat="59.454140369648" lon="17.808876330569">
        <ele>24.2</ele>
        <time>2013-08-17T10:32:24Z</time>
      </trkpt>
      <trkpt lat="59.454573462421" lon="17.809651823957">
        <ele>24.2</ele>
        <time>2013-08-17T10:32:32Z</time>
      </trkpt>
      <trkpt lat="59.454621742165" lon="17.809766572168">
        <ele>24.6</ele>
        <time>2013-08-17T10:32:33Z</time>
      </trkpt>
      <trkpt lat="59.454669435176" lon="17.809881068922">
        <ele>25</ele>
        <time>2013-08-17T10:32:34Z</time>
      </trkpt>
      <trkpt lat="59.454713943065" lon="17.809995481857">
        <ele>25.4</ele>
        <time>2013-08-17T10:32:35Z</time>
      </trkpt>
      <trkpt lat="59.454755684927" lon="17.810113079914">
        <ele>25.8</ele>
        <time>2013-08-17T10:32:36Z</time>
      </trkpt>
      <trkpt lat="59.454793906391" lon="17.810226738478">
        <ele>26.2</ele>
        <time>2013-08-17T10:32:37Z</time>
      </trkpt>
      <trkpt lat="59.454831038208" lon="17.810345342363">
        <ele>26.2</ele>
        <time>2013-08-17T10:32:38Z</time>
      </trkpt>
      <trkpt lat="59.455029186324" lon="17.811139108293">
        <ele>26.2</ele>
        <time>2013-08-17T10:32:44Z</time>
      </trkpt>
      <trkpt lat="59.455262957515" lon="17.812110570503">
        <ele>26.2</ele>
        <time>2013-08-17T10:32:51Z</time>
      </trkpt>
      <trkpt lat="59.455486251331" lon="17.813050600588">
        <ele>26.2</ele>
        <time>2013-08-17T10:32:58Z</time>
      </trkpt>
      <trkpt lat="59.455717591771" lon="17.813883929086">
        <ele>26.2</ele>
        <time>2013-08-17T10:33:05Z</time>
      </trkpt>
      <trkpt lat="59.455999642706" lon="17.814544003711">
        <ele>26.2</ele>
        <time>2013-08-17T10:33:11Z</time>
      </trkpt>
      <trkpt lat="59.456286052229" lon="17.815136017308">
        <ele>26.2</ele>
        <time>2013-08-17T10:33:17Z</time>
      </trkpt>
      <trkpt lat="59.456576065969" lon="17.815656952393">
        <ele>26.2</ele>
        <time>2013-08-17T10:33:23Z</time>
      </trkpt>
      <trkpt lat="59.456960543722" lon="17.816285762531">
        <ele>26.2</ele>
        <time>2013-08-17T10:33:30Z</time>
      </trkpt>
      <trkpt lat="59.457252904394" lon="17.816862018156">
        <ele>26.2</ele>
        <time>2013-08-17T10:33:36Z</time>
      </trkpt>
      <trkpt lat="59.457500924815" lon="17.817515806356">
        <ele>26.2</ele>
        <time>2013-08-17T10:33:42Z</time>
      </trkpt>
      <trkpt lat="59.457852377882" lon="17.818060713675">
        <ele>26.2</ele>
        <time>2013-08-17T10:33:48Z</time>
      </trkpt>
      <trkpt lat="59.458039629528" lon="17.818251234262">
        <ele>26.6</ele>
        <time>2013-08-17T10:33:51Z</time>
      </trkpt>
      <trkpt lat="59.458100985036" lon="17.818314182331">
        <ele>27.2</ele>
        <time>2013-08-17T10:33:52Z</time>
      </trkpt>
      <trkpt lat="59.458154964472" lon="17.818369754328">
        <ele>27.6</ele>
        <time>2013-08-17T10:33:53Z</time>
      </trkpt>
      <trkpt lat="59.458207854261" lon="17.818430606922">
        <ele>28</ele>
        <time>2013-08-17T10:33:54Z</time>
      </trkpt>
      <trkpt lat="59.458260073498" lon="17.81848944786">
        <ele>28.4</ele>
        <time>2013-08-17T10:33:55Z</time>
      </trkpt>
      <trkpt lat="59.458675983376" lon="17.818952631654">
        <ele>28.4</ele>
        <time>2013-08-17T10:34:03Z</time>
      </trkpt>
      <trkpt lat="59.45902014419" lon="17.819322860177">
        <ele>28.4</ele>
        <time>2013-08-17T10:34:10Z</time>
      </trkpt>
      <trkpt lat="59.459278558167" lon="17.819607425682">
        <ele>29</ele>
        <time>2013-08-17T10:34:15Z</time>
      </trkpt>
      <trkpt lat="59.459328095196" lon="17.819668445914">
        <ele>29.4</ele>
        <time>2013-08-17T10:34:16Z</time>
      </trkpt>
      <trkpt lat="59.459379476243" lon="17.819727119214">
        <ele>29.8</ele>
        <time>2013-08-17T10:34:17Z</time>
      </trkpt>
      <trkpt lat="59.459431527842" lon="17.819781266288">
        <ele>30.2</ele>
        <time>2013-08-17T10:34:18Z</time>
      </trkpt>
      <trkpt lat="59.45948198688" lon="17.819839604312">
        <ele>30.6</ele>
        <time>2013-08-17T10:34:19Z</time>
      </trkpt>
      <trkpt lat="59.459588856105" lon="17.819944210424">
        <ele>30.6</ele>
        <time>2013-08-17T10:34:21Z</time>
      </trkpt>
      <trkpt lat="59.459741406685" lon="17.8201373294">
        <ele>30.6</ele>
        <time>2013-08-17T10:34:24Z</time>
      </trkpt>
      <trkpt lat="59.460099649091" lon="17.820548796871">
        <ele>31</ele>
        <time>2013-08-17T10:34:31Z</time>
      </trkpt>
      <trkpt lat="59.460148934663" lon="17.820602273393">
        <ele>31.4</ele>
        <time>2013-08-17T10:34:32Z</time>
      </trkpt>
      <trkpt lat="59.46019780114" lon="17.82065533082">
        <ele>31.8</ele>
        <time>2013-08-17T10:34:33Z</time>
      </trkpt>
      <trkpt lat="59.460246164703" lon="17.820710064627">
        <ele>32.2</ele>
        <time>2013-08-17T10:34:34Z</time>
      </trkpt>
      <trkpt lat="59.460295198818" lon="17.820768318832">
        <ele>32.6</ele>
        <time>2013-08-17T10:34:35Z</time>
      </trkpt>
      <trkpt lat="59.460551433501" lon="17.821064954273">
        <ele>32.6</ele>
        <time>2013-08-17T10:34:40Z</time>
      </trkpt>
      <trkpt lat="59.460896683962" lon="17.821442977963">
        <ele>32.6</ele>
        <time>2013-08-17T10:34:47Z</time>
      </trkpt>
      <trkpt lat="59.4611986" lon="17.821782780189">
        <ele>33</ele>
        <time>2013-08-17T10:34:53Z</time>
      </trkpt>
      <trkpt lat="59.46124553864" lon="17.821841034394">
        <ele>33.4</ele>
        <time>2013-08-17T10:34:54Z</time>
      </trkpt>
      <trkpt lat="59.461293650746" lon="17.821896774029">
        <ele>33.8</ele>
        <time>2013-08-17T10:34:55Z</time>
      </trkpt>
      <trkpt lat="59.461340757024" lon="17.821958045718">
        <ele>34.2</ele>
        <time>2013-08-17T10:34:56Z</time>
      </trkpt>
      <trkpt lat="59.461389958777" lon="17.82201738957">
        <ele>34.6</ele>
        <time>2013-08-17T10:34:57Z</time>
      </trkpt>
      <trkpt lat="59.461584754133" lon="17.82224537725">
        <ele>34.6</ele>
        <time>2013-08-17T10:35:01Z</time>
      </trkpt>
      <trkpt lat="59.461681145983" lon="17.822385857894">
        <ele>34.6</ele>
        <time>2013-08-17T10:35:03Z</time>
      </trkpt>
      <trkpt lat="59.461834870029" lon="17.822710237424">
        <ele>34.6</ele>
        <time>2013-08-17T10:35:07Z</time>
      </trkpt>
      <trkpt lat="59.461932938259" lon="17.82298046988">
        <ele>35</ele>
        <time>2013-08-17T10:35:10Z</time>
      </trkpt>
      <trkpt lat="59.461961939633" lon="17.823074766255">
        <ele>36</ele>
        <time>2013-08-17T10:35:11Z</time>
      </trkpt>
      <trkpt lat="59.461992868844" lon="17.823171158105">
        <ele>36.4</ele>
        <time>2013-08-17T10:35:12Z</time>
      </trkpt>
      <trkpt lat="59.462019858562" lon="17.823266963222">
        <ele>36.8</ele>
        <time>2013-08-17T10:35:13Z</time>
      </trkpt>
      <trkpt lat="59.462045507176" lon="17.823360924321">
        <ele>36.8</ele>
        <time>2013-08-17T10:35:14Z</time>
      </trkpt>
      <trkpt lat="59.462074005636" lon="17.823447425529">
        <ele>36.8</ele>
        <time>2013-08-17T10:35:15Z</time>
      </trkpt>
      <trkpt lat="59.462164865432" lon="17.823563514844">
        <ele>36.8</ele>
        <time>2013-08-17T10:35:17Z</time>
      </trkpt>
      <trkpt lat="59.462266789336" lon="17.823517833489">
        <ele>36.8</ele>
        <time>2013-08-17T10:35:19Z</time>
      </trkpt>
      <trkpt lat="59.462355637476" lon="17.823412724463">
        <ele>36.8</ele>
        <time>2013-08-17T10:35:21Z</time>
      </trkpt>
      <trkpt lat="59.462452196964" lon="17.823322619038">
        <ele>36.8</ele>
        <time>2013-08-17T10:35:23Z</time>
      </trkpt>
      <trkpt lat="59.462503326554" lon="17.823319182459">
        <ele>36.8</ele>
        <time>2013-08-17T10:35:24Z</time>
      </trkpt>
      <trkpt lat="59.462638107506" lon="17.82343393067">
        <ele>36.8</ele>
        <time>2013-08-17T10:35:27Z</time>
      </trkpt>
      <trkpt lat="59.462681861024" lon="17.823494531807">
        <ele>36.8</ele>
        <time>2013-08-17T10:35:28Z</time>
      </trkpt>
      <trkpt lat="59.462870537593" lon="17.823811870541">
        <ele>36.8</ele>
        <time>2013-08-17T10:35:32Z</time>
      </trkpt>
      <trkpt lat="59.463273036431" lon="17.824530786104">
        <ele>36.8</ele>
        <time>2013-08-17T10:35:39Z</time>
      </trkpt>
      <trkpt lat="59.463559613592" lon="17.825032442819">
        <ele>36.8</ele>
        <time>2013-08-17T10:35:44Z</time>
      </trkpt>
      <trkpt lat="59.463892877936" lon="17.825774492426">
        <ele>36.4</ele>
        <time>2013-08-17T10:35:50Z</time>
      </trkpt>
      <trkpt lat="59.463945851544" lon="17.82590491479">
        <ele>36</ele>
        <time>2013-08-17T10:35:51Z</time>
      </trkpt>
      <trkpt lat="59.463994215107" lon="17.826035588611">
        <ele>35.6</ele>
        <time>2013-08-17T10:35:52Z</time>
      </trkpt>
      <trkpt lat="59.464042159575" lon="17.826175147246">
        <ele>35.2</ele>
        <time>2013-08-17T10:35:53Z</time>
      </trkpt>
      <trkpt lat="59.464086248369" lon="17.826314622062">
        <ele>34.8</ele>
        <time>2013-08-17T10:35:54Z</time>
      </trkpt>
      <trkpt lat="59.464169061541" lon="17.826607904743">
        <ele>34.8</ele>
        <time>2013-08-17T10:35:56Z</time>
      </trkpt>
      <trkpt lat="59.464242570804" lon="17.82689230261">
        <ele>34.2</ele>
        <time>2013-08-17T10:35:58Z</time>
      </trkpt>
      <trkpt lat="59.464274086748" lon="17.82703898586">
        <ele>33.8</ele>
        <time>2013-08-17T10:35:59Z</time>
      </trkpt>
      <trkpt lat="59.464305686511" lon="17.827187764585">
        <ele>33.4</ele>
        <time>2013-08-17T10:36:00Z</time>
      </trkpt>
      <trkpt lat="59.464336112808" lon="17.827333022912">
        <ele>32.4</ele>
        <time>2013-08-17T10:36:01Z</time>
      </trkpt>
      <trkpt lat="59.464398641782" lon="17.827629239258">
        <ele>32.4</ele>
        <time>2013-08-17T10:36:03Z</time>
      </trkpt>
      <trkpt lat="59.46457985846" lon="17.828505483084">
        <ele>32.4</ele>
        <time>2013-08-17T10:36:09Z</time>
      </trkpt>
      <trkpt lat="59.464781694612" lon="17.829407794619">
        <ele>32.4</ele>
        <time>2013-08-17T10:36:15Z</time>
      </trkpt>
      <trkpt lat="59.464980261823" lon="17.830344304306">
        <ele>32.4</ele>
        <time>2013-08-17T10:36:22Z</time>
      </trkpt>
      <trkpt lat="59.465126777435" lon="17.831060537661">
        <ele>32.4</ele>
        <time>2013-08-17T10:36:28Z</time>
      </trkpt>
      <trkpt lat="59.465136248982" lon="17.831184757419">
        <ele>32.4</ele>
        <time>2013-08-17T10:36:29Z</time>
      </trkpt>
      <trkpt lat="59.465199867603" lon="17.83202873093">
        <ele>32.4</ele>
        <time>2013-08-17T10:36:36Z</time>
      </trkpt>
      <trkpt lat="59.465279830929" lon="17.833029865066">
        <ele>32.4</ele>
        <time>2013-08-17T10:36:44Z</time>
      </trkpt>
      <trkpt lat="59.465348646328" lon="17.833700333247">
        <ele>32.8</ele>
        <time>2013-08-17T10:36:50Z</time>
      </trkpt>
      <trkpt lat="59.465357447323" lon="17.833801167504">
        <ele>33.2</ele>
        <time>2013-08-17T10:36:51Z</time>
      </trkpt>
      <trkpt lat="59.465366667413" lon="17.833896804983">
        <ele>33.6</ele>
        <time>2013-08-17T10:36:52Z</time>
      </trkpt>
      <trkpt lat="59.465377312426" lon="17.833988670607">
        <ele>34</ele>
        <time>2013-08-17T10:36:53Z</time>
      </trkpt>
      <trkpt lat="59.465390472009" lon="17.834075674729">
        <ele>34.4</ele>
        <time>2013-08-17T10:36:54Z</time>
      </trkpt>
      <trkpt lat="59.46541721027" lon="17.834243648005">
        <ele>34.4</ele>
        <time>2013-08-17T10:36:56Z</time>
      </trkpt>
      <trkpt lat="59.465452246612" lon="17.834397539689">
        <ele>34.8</ele>
        <time>2013-08-17T10:36:58Z</time>
      </trkpt>
      <trkpt lat="59.465473536638" lon="17.834472138599">
        <ele>35.4</ele>
        <time>2013-08-17T10:36:59Z</time>
      </trkpt>
      <trkpt lat="59.465496922139" lon="17.834543887663">
        <ele>35.8</ele>
        <time>2013-08-17T10:37:00Z</time>
      </trkpt>
      <trkpt lat="59.465523241305" lon="17.834615217632">
        <ele>36.2</ele>
        <time>2013-08-17T10:37:01Z</time>
      </trkpt>
      <trkpt lat="59.465552913231" lon="17.834684871221">
        <ele>36.6</ele>
        <time>2013-08-17T10:37:02Z</time>
      </trkpt>
      <trkpt lat="59.465588955401" lon="17.834756704104">
        <ele>36.6</ele>
        <time>2013-08-17T10:37:03Z</time>
      </trkpt>
      <trkpt lat="59.465695070255" lon="17.834962815025">
        <ele>37</ele>
        <time>2013-08-17T10:37:06Z</time>
      </trkpt>
      <trkpt lat="59.465728262579" lon="17.835024170533">
        <ele>37.4</ele>
        <time>2013-08-17T10:37:07Z</time>
      </trkpt>
      <trkpt lat="59.46576170636" lon="17.835088208249">
        <ele>37.8</ele>
        <time>2013-08-17T10:37:08Z</time>
      </trkpt>
      <trkpt lat="59.465797161797" lon="17.835154257621">
        <ele>38.4</ele>
        <time>2013-08-17T10:37:09Z</time>
      </trkpt>
      <trkpt lat="59.465835550899" lon="17.835229527083">
        <ele>38.8</ele>
        <time>2013-08-17T10:37:10Z</time>
      </trkpt>
      <trkpt lat="59.466083738958" lon="17.835732357264">
        <ele>38.8</ele>
        <time>2013-08-17T10:37:16Z</time>
      </trkpt>
      <trkpt lat="59.466215586245" lon="17.836106944375">
        <ele>38.2</ele>
        <time>2013-08-17T10:37:19Z</time>
      </trkpt>
      <trkpt lat="59.466251041682" lon="17.836236863825">
        <ele>37.8</ele>
        <time>2013-08-17T10:37:20Z</time>
      </trkpt>
      <trkpt lat="59.466286748576" lon="17.836359910117">
        <ele>37.2</ele>
        <time>2013-08-17T10:37:21Z</time>
      </trkpt>
      <trkpt lat="59.466318599796" lon="17.836474993604">
        <ele>36.8</ele>
        <time>2013-08-17T10:37:22Z</time>
      </trkpt>
      <trkpt lat="59.466349193731" lon="17.836591418195">
        <ele>36.2</ele>
        <time>2013-08-17T10:37:23Z</time>
      </trkpt>
      <trkpt lat="59.466426642487" lon="17.836931220421">
        <ele>36.2</ele>
        <time>2013-08-17T10:37:26Z</time>
      </trkpt>
      <trkpt lat="59.466597884704" lon="17.83754150656">
        <ele>36.2</ele>
        <time>2013-08-17T10:37:32Z</time>
      </trkpt>
      <trkpt lat="59.466768037274" lon="17.838112900683">
        <ele>36.2</ele>
        <time>2013-08-17T10:37:38Z</time>
      </trkpt>
      <trkpt lat="59.466815814104" lon="17.838332087368">
        <ele>36.2</ele>
        <time>2013-08-17T10:37:40Z</time>
      </trkpt>
      <trkpt lat="59.46686727897" lon="17.838644732238">
        <ele>36.2</ele>
        <time>2013-08-17T10:37:43Z</time>
      </trkpt>
      <trkpt lat="59.466885551512" lon="17.838853944462">
        <ele>36.6</ele>
        <time>2013-08-17T10:37:45Z</time>
      </trkpt>
      <trkpt lat="59.466878007802" lon="17.838970117596">
        <ele>37</ele>
        <time>2013-08-17T10:37:46Z</time>
      </trkpt>
      <trkpt lat="59.466866608418" lon="17.839084698169">
        <ele>37.4</ele>
        <time>2013-08-17T10:37:47Z</time>
      </trkpt>
      <trkpt lat="59.46684632422" lon="17.839191399756">
        <ele>37.8</ele>
        <time>2013-08-17T10:37:48Z</time>
      </trkpt>
      <trkpt lat="59.466815227371" lon="17.839300951189">
        <ele>38.2</ele>
        <time>2013-08-17T10:37:49Z</time>
      </trkpt>
      <trkpt lat="59.466734425855" lon="17.83949197469">
        <ele>38.2</ele>
        <time>2013-08-17T10:37:51Z</time>
      </trkpt>
      <trkpt lat="59.466570140615" lon="17.839843427757">
        <ele>38.2</ele>
        <time>2013-08-17T10:37:55Z</time>
      </trkpt>
      <trkpt lat="59.466495876981" lon="17.840041492054">
        <ele>38.2</ele>
        <time>2013-08-17T10:37:57Z</time>
      </trkpt>
      <trkpt lat="59.466385654996" lon="17.840306276275">
        <ele>38.2</ele>
        <time>2013-08-17T10:38:00Z</time>
      </trkpt>
      <trkpt lat="59.466270822966" lon="17.840580280586">
        <ele>38.2</ele>
        <time>2013-08-17T10:38:03Z</time>
      </trkpt>
      <trkpt lat="59.466085834433" lon="17.841021839078">
        <ele>38.2</ele>
        <time>2013-08-17T10:38:08Z</time>
      </trkpt>
      <trkpt lat="59.465794228132" lon="17.841689205956">
        <ele>38.2</ele>
        <time>2013-08-17T10:38:15Z</time>
      </trkpt>
      <trkpt lat="59.465610664522" lon="17.842145516592">
        <ele>37.8</ele>
        <time>2013-08-17T10:38:19Z</time>
      </trkpt>
      <trkpt lat="59.465563977339" lon="17.84225381074">
        <ele>37.4</ele>
        <time>2013-08-17T10:38:20Z</time>
      </trkpt>
      <trkpt lat="59.465519301812" lon="17.842363278354">
        <ele>37</ele>
        <time>2013-08-17T10:38:21Z</time>
      </trkpt>
      <trkpt lat="59.465471944077" lon="17.842474087072">
        <ele>36.4</ele>
        <time>2013-08-17T10:38:22Z</time>
      </trkpt>
      <trkpt lat="59.465424502523" lon="17.842585063428">
        <ele>36</ele>
        <time>2013-08-17T10:38:23Z</time>
      </trkpt>
      <trkpt lat="59.46512635834" lon="17.843237175248">
        <ele>35.2</ele>
        <time>2013-08-17T10:38:29Z</time>
      </trkpt>
      <trkpt lat="59.465067265945" lon="17.843337255134">
        <ele>34.6</ele>
        <time>2013-08-17T10:38:30Z</time>
      </trkpt>
      <trkpt lat="59.465004401695" lon="17.843421828505">
        <ele>34.2</ele>
        <time>2013-08-17T10:38:31Z</time>
      </trkpt>
      <trkpt lat="59.464936843581" lon="17.84349265556">
        <ele>33.8</ele>
        <time>2013-08-17T10:38:32Z</time>
      </trkpt>
      <trkpt lat="59.46480114062" lon="17.843582090433">
        <ele>33.8</ele>
        <time>2013-08-17T10:38:34Z</time>
      </trkpt>
      <trkpt lat="59.46468798497" lon="17.843710417322">
        <ele>33.4</ele>
        <time>2013-08-17T10:38:36Z</time>
      </trkpt>
      <trkpt lat="59.464640794873" lon="17.843793314313">
        <ele>32.8</ele>
        <time>2013-08-17T10:38:37Z</time>
      </trkpt>
      <trkpt lat="59.464599220649" lon="17.843903871574">
        <ele>32.4</ele>
        <time>2013-08-17T10:38:38Z</time>
      </trkpt>
      <trkpt lat="59.464575080777" lon="17.844044016942">
        <ele>32</ele>
        <time>2013-08-17T10:38:39Z</time>
      </trkpt>
      <trkpt lat="59.464555048036" lon="17.844189694364">
        <ele>31.4</ele>
        <time>2013-08-17T10:38:40Z</time>
      </trkpt>
      <trkpt lat="59.464544905937" lon="17.844343083134">
        <ele>31</ele>
        <time>2013-08-17T10:38:41Z</time>
      </trkpt>
      <trkpt lat="59.464538535693" lon="17.844518181025">
        <ele>30.6</ele>
        <time>2013-08-17T10:38:42Z</time>
      </trkpt>
      <trkpt lat="59.464525292291" lon="17.84468539993">
        <ele>30.2</ele>
        <time>2013-08-17T10:38:43Z</time>
      </trkpt>
      <trkpt lat="59.46450777412" lon="17.844842560555">
        <ele>29.8</ele>
        <time>2013-08-17T10:38:44Z</time>
      </trkpt>
      <trkpt lat="59.464485310628" lon="17.844996033144">
        <ele>29.4</ele>
        <time>2013-08-17T10:38:45Z</time>
      </trkpt>
      <trkpt lat="59.464463936783" lon="17.845154199597">
        <ele>29</ele>
        <time>2013-08-17T10:38:46Z</time>
      </trkpt>
      <trkpt lat="59.464448094992" lon="17.845313371878">
        <ele>28.6</ele>
        <time>2013-08-17T10:38:47Z</time>
      </trkpt>
      <trkpt lat="59.464432756115" lon="17.845473717625">
        <ele>28</ele>
        <time>2013-08-17T10:38:48Z</time>
      </trkpt>
      <trkpt lat="59.464420853817" lon="17.845639511607">
        <ele>27.6</ele>
        <time>2013-08-17T10:38:49Z</time>
      </trkpt>
      <trkpt lat="59.464409370614" lon="17.845822656122">
        <ele>27.2</ele>
        <time>2013-08-17T10:38:50Z</time>
      </trkpt>
      <trkpt lat="59.464394953746" lon="17.846001190592">
        <ele>27.2</ele>
        <time>2013-08-17T10:38:51Z</time>
      </trkpt>
      <trkpt lat="59.464311972936" lon="17.846974832096">
        <ele>27.2</ele>
        <time>2013-08-17T10:38:57Z</time>
      </trkpt>
      <trkpt lat="59.46428649196" lon="17.847260571067">
        <ele>27.2</ele>
        <time>2013-08-17T10:38:59Z</time>
      </trkpt>
      <trkpt lat="59.464190854481" lon="17.847681593904">
        <ele>27.2</ele>
        <time>2013-08-17T10:39:02Z</time>
      </trkpt>
      <trkpt lat="59.464038471539" lon="17.848055678101">
        <ele>27.2</ele>
        <time>2013-08-17T10:39:05Z</time>
      </trkpt>
      <trkpt lat="59.463934200703" lon="17.848276708804">
        <ele>27.2</ele>
        <time>2013-08-17T10:39:07Z</time>
      </trkpt>
      <trkpt lat="59.463761365925" lon="17.848580887955">
        <ele>27.2</ele>
        <time>2013-08-17T10:39:11Z</time>
      </trkpt>
      <trkpt lat="59.463634631597" lon="17.848756824036">
        <ele>27.2</ele>
        <time>2013-08-17T10:39:14Z</time>
      </trkpt>
      <trkpt lat="59.463551818425" lon="17.848831171489">
        <ele>27.2</ele>
        <time>2013-08-17T10:39:16Z</time>
      </trkpt>
      <trkpt lat="59.463447296132" lon="17.848955558885">
        <ele>27.6</ele>
        <time>2013-08-17T10:39:19Z</time>
      </trkpt>
      <trkpt lat="59.463419552043" lon="17.848996714014">
        <ele>28</ele>
        <time>2013-08-17T10:39:20Z</time>
      </trkpt>
      <trkpt lat="59.463389963936" lon="17.849039042609">
        <ele>28.4</ele>
        <time>2013-08-17T10:39:21Z</time>
      </trkpt>
      <trkpt lat="59.463361716933" lon="17.849081203566">
        <ele>28.8</ele>
        <time>2013-08-17T10:39:22Z</time>
      </trkpt>
      <trkpt lat="59.463332547921" lon="17.849125208541">
        <ele>29.4</ele>
        <time>2013-08-17T10:39:23Z</time>
      </trkpt>
      <trkpt lat="59.463154432546" lon="17.849314471843">
        <ele>29.8</ele>
        <time>2013-08-17T10:39:29Z</time>
      </trkpt>
      <trkpt lat="59.463124928258" lon="17.849341461561">
        <ele>30.2</ele>
        <time>2013-08-17T10:39:30Z</time>
      </trkpt>
      <trkpt lat="59.463094921056" lon="17.849373145143">
        <ele>30.6</ele>
        <time>2013-08-17T10:39:31Z</time>
      </trkpt>
      <trkpt lat="59.463067847519" lon="17.849389825124">
        <ele>31.2</ele>
        <time>2013-08-17T10:39:32Z</time>
      </trkpt>
      <trkpt lat="59.46303339791" lon="17.849410025503">
        <ele>31.6</ele>
        <time>2013-08-17T10:39:33Z</time>
      </trkpt>
      <trkpt lat="59.463006911106" lon="17.849438356325">
        <ele>31.6</ele>
        <time>2013-08-17T10:39:34Z</time>
      </trkpt>
      <trkpt lat="59.462981933044" lon="17.849471632468">
        <ele>32</ele>
        <time>2013-08-17T10:39:35Z</time>
      </trkpt>
      <trkpt lat="59.462955362421" lon="17.849510943579">
        <ele>32.4</ele>
        <time>2013-08-17T10:39:36Z</time>
      </trkpt>
      <trkpt lat="59.462931557825" lon="17.849556792572">
        <ele>33</ele>
        <time>2013-08-17T10:39:37Z</time>
      </trkpt>
      <trkpt lat="59.462903310822" lon="17.849591996552">
        <ele>33.4</ele>
        <time>2013-08-17T10:39:38Z</time>
      </trkpt>
      <trkpt lat="59.462876069647" lon="17.84963658826">
        <ele>33.8</ele>
        <time>2013-08-17T10:39:39Z</time>
      </trkpt>
      <trkpt lat="59.462825945885" lon="17.849741864924">
        <ele>33.8</ele>
        <time>2013-08-17T10:39:41Z</time>
      </trkpt>
      <trkpt lat="59.462797195968" lon="17.849796011998">
        <ele>34.2</ele>
        <time>2013-08-17T10:39:42Z</time>
      </trkpt>
      <trkpt lat="59.462768278413" lon="17.849864240664">
        <ele>35</ele>
        <time>2013-08-17T10:39:43Z</time>
      </trkpt>
      <trkpt lat="59.462745982559" lon="17.849941102687">
        <ele>35.4</ele>
        <time>2013-08-17T10:39:44Z</time>
      </trkpt>
      <trkpt lat="59.462729470216" lon="17.850010169543">
        <ele>36</ele>
        <time>2013-08-17T10:39:45Z</time>
      </trkpt>
      <trkpt lat="59.462681274291" lon="17.850137071509">
        <ele>36</ele>
        <time>2013-08-17T10:39:47Z</time>
      </trkpt>
      <trkpt lat="59.462575913808" lon="17.850463211238">
        <ele>36</ele>
        <time>2013-08-17T10:39:53Z</time>
      </trkpt>
      <trkpt lat="59.4625145583" lon="17.850645014649">
        <ele>36.4</ele>
        <time>2013-08-17T10:39:56Z</time>
      </trkpt>
      <trkpt lat="59.46249695631" lon="17.850706537795">
        <ele>36.8</ele>
        <time>2013-08-17T10:39:57Z</time>
      </trkpt>
      <trkpt lat="59.46247683975" lon="17.850770240235">
        <ele>37.2</ele>
        <time>2013-08-17T10:39:58Z</time>
      </trkpt>
      <trkpt lat="59.46245420862" lon="17.850832350114">
        <ele>37.6</ele>
        <time>2013-08-17T10:39:59Z</time>
      </trkpt>
      <trkpt lat="59.462425793979" lon="17.850902338979">
        <ele>38.2</ele>
        <time>2013-08-17T10:40:00Z</time>
      </trkpt>
      <trkpt lat="59.462316158727" lon="17.85119059252">
        <ele>38.2</ele>
        <time>2013-08-17T10:40:04Z</time>
      </trkpt>
      <trkpt lat="59.462127817434" lon="17.851849493679">
        <ele>38.2</ele>
        <time>2013-08-17T10:40:11Z</time>
      </trkpt>
      <trkpt lat="59.462093451644" lon="17.852068764183">
        <ele>38.2</ele>
        <time>2013-08-17T10:40:13Z</time>
      </trkpt>
      <trkpt lat="59.462068222125" lon="17.852401022699">
        <ele>38.2</ele>
        <time>2013-08-17T10:40:16Z</time>
      </trkpt>
      <trkpt lat="59.462094122196" lon="17.852915168445">
        <ele>38.2</ele>
        <time>2013-08-17T10:40:20Z</time>
      </trkpt>
      <trkpt lat="59.462108287607" lon="17.853043160058">
        <ele>38.2</ele>
        <time>2013-08-17T10:40:21Z</time>
      </trkpt>
      <trkpt lat="59.462130751099" lon="17.853176013173">
        <ele>38.2</ele>
        <time>2013-08-17T10:40:22Z</time>
      </trkpt>
      <trkpt lat="59.462227394406" lon="17.853543224212">
        <ele>38.2</ele>
        <time>2013-08-17T10:40:25Z</time>
      </trkpt>
      <trkpt lat="59.462387404877" lon="17.854261972137">
        <ele>38.2</ele>
        <time>2013-08-17T10:40:30Z</time>
      </trkpt>
      <trkpt lat="59.462407605256" lon="17.854440841883">
        <ele>37.6</ele>
        <time>2013-08-17T10:40:31Z</time>
      </trkpt>
      <trkpt lat="59.46242151921" lon="17.854606049132">
        <ele>36.8</ele>
        <time>2013-08-17T10:40:32Z</time>
      </trkpt>
      <trkpt lat="59.462432499499" lon="17.854776620797">
        <ele>36.2</ele>
        <time>2013-08-17T10:40:33Z</time>
      </trkpt>
      <trkpt lat="59.462441216675" lon="17.854943923521">
        <ele>35.8</ele>
        <time>2013-08-17T10:40:34Z</time>
      </trkpt>
      <trkpt lat="59.46246761966" lon="17.855279870073">
        <ele>35.8</ele>
        <time>2013-08-17T10:40:36Z</time>
      </trkpt>
      <trkpt lat="59.462484634917" lon="17.85578219734">
        <ele>35.8</ele>
        <time>2013-08-17T10:40:39Z</time>
      </trkpt>
      <trkpt lat="59.462467535841" lon="17.856123508308">
        <ele>35.8</ele>
        <time>2013-08-17T10:40:41Z</time>
      </trkpt>
      <trkpt lat="59.462434175879" lon="17.856613262725">
        <ele>35.8</ele>
        <time>2013-08-17T10:40:44Z</time>
      </trkpt>
      <trkpt lat="59.462390254723" lon="17.856953567865">
        <ele>35.8</ele>
        <time>2013-08-17T10:40:46Z</time>
      </trkpt>
      <trkpt lat="59.46234440573" lon="17.857287754218">
        <ele>35.4</ele>
        <time>2013-08-17T10:40:48Z</time>
      </trkpt>
      <trkpt lat="59.462321355505" lon="17.857448602879">
        <ele>35</ele>
        <time>2013-08-17T10:40:49Z</time>
      </trkpt>
      <trkpt lat="59.462300484574" lon="17.857610792644">
        <ele>34.6</ele>
        <time>2013-08-17T10:40:50Z</time>
      </trkpt>
      <trkpt lat="59.46227902691" lon="17.857770048744">
        <ele>34</ele>
        <time>2013-08-17T10:40:51Z</time>
      </trkpt>
      <trkpt lat="59.462255809047" lon="17.857925616808">
        <ele>33.6</ele>
        <time>2013-08-17T10:40:52Z</time>
      </trkpt>
      <trkpt lat="59.4622379556" lon="17.858087136021">
        <ele>33.6</ele>
        <time>2013-08-17T10:40:53Z</time>
      </trkpt>
      <trkpt lat="59.462226891492" lon="17.858389303516">
        <ele>33.6</ele>
        <time>2013-08-17T10:40:55Z</time>
      </trkpt>
      <trkpt lat="59.462225634207" lon="17.858722400222">
        <ele>33.6</ele>
        <time>2013-08-17T10:40:57Z</time>
      </trkpt>
      <trkpt lat="59.462215240651" lon="17.859247023343">
        <ele>33.2</ele>
        <time>2013-08-17T10:41:00Z</time>
      </trkpt>
      <trkpt lat="59.462215995022" lon="17.85941156004">
        <ele>32.8</ele>
        <time>2013-08-17T10:41:01Z</time>
      </trkpt>
      <trkpt lat="59.462232758822" lon="17.859578024574">
        <ele>32.4</ele>
        <time>2013-08-17T10:41:02Z</time>
      </trkpt>
      <trkpt lat="59.46226896863" lon="17.85973258681">
        <ele>31.8</ele>
        <time>2013-08-17T10:41:03Z</time>
      </trkpt>
      <trkpt lat="59.462315823451" lon="17.859862087165">
        <ele>31.4</ele>
        <time>2013-08-17T10:41:04Z</time>
      </trkpt>
      <trkpt lat="59.462426129255" lon="17.860096696546">
        <ele>31.4</ele>
        <time>2013-08-17T10:41:06Z</time>
      </trkpt>
      <trkpt lat="59.462648333424" lon="17.860323343122">
        <ele>31.4</ele>
        <time>2013-08-17T10:41:09Z</time>
      </trkpt>
      <trkpt lat="59.462722261782" lon="17.860375562359">
        <ele>31.4</ele>
        <time>2013-08-17T10:41:10Z</time>
      </trkpt>
      <trkpt lat="59.462875650552" lon="17.86050623618">
        <ele>31.4</ele>
        <time>2013-08-17T10:41:12Z</time>
      </trkpt>
      <trkpt lat="59.463011018237" lon="17.860697762595">
        <ele>31.4</ele>
        <time>2013-08-17T10:41:14Z</time>
      </trkpt>
      <trkpt lat="59.463134148348" lon="17.860929270673">
        <ele>31.4</ele>
        <time>2013-08-17T10:41:16Z</time>
      </trkpt>
      <trkpt lat="59.46322618161" lon="17.86118684646">
        <ele>31.4</ele>
        <time>2013-08-17T10:41:18Z</time>
      </trkpt>
      <trkpt lat="59.463255937355" lon="17.861327410923">
        <ele>31</ele>
        <time>2013-08-17T10:41:19Z</time>
      </trkpt>
      <trkpt lat="59.463276389191" lon="17.861466969558">
        <ele>30.6</ele>
        <time>2013-08-17T10:41:20Z</time>
      </trkpt>
      <trkpt lat="59.463283429987" lon="17.861611641152">
        <ele>30.2</ele>
        <time>2013-08-17T10:41:21Z</time>
      </trkpt>
      <trkpt lat="59.463262642875" lon="17.861775926392">
        <ele>29.4</ele>
        <time>2013-08-17T10:41:22Z</time>
      </trkpt>
      <trkpt lat="59.463241771944" lon="17.861946162781">
        <ele>29.4</ele>
        <time>2013-08-17T10:41:23Z</time>
      </trkpt>
      <trkpt lat="59.463222158298" lon="17.862121344491">
        <ele>29.4</ele>
        <time>2013-08-17T10:41:24Z</time>
      </trkpt>
      <trkpt lat="59.463184104472" lon="17.863068331553">
        <ele>29.4</ele>
        <time>2013-08-17T10:41:29Z</time>
      </trkpt>
      <trkpt lat="59.463168597957" lon="17.86403753065">
        <ele>29</ele>
        <time>2013-08-17T10:41:35Z</time>
      </trkpt>
      <trkpt lat="59.463168849414" lon="17.8641925958">
        <ele>28.6</ele>
        <time>2013-08-17T10:41:36Z</time>
      </trkpt>
      <trkpt lat="59.463167759767" lon="17.864343972914">
        <ele>28</ele>
        <time>2013-08-17T10:41:37Z</time>
      </trkpt>
      <trkpt lat="59.463164909921" lon="17.864500798263">
        <ele>27.6</ele>
        <time>2013-08-17T10:41:38Z</time>
      </trkpt>
      <trkpt lat="59.463163820274" lon="17.864661814562">
        <ele>27.2</ele>
        <time>2013-08-17T10:41:39Z</time>
      </trkpt>
      <trkpt lat="59.463163987912" lon="17.86509700281">
        <ele>26.8</ele>
        <time>2013-08-17T10:41:42Z</time>
      </trkpt>
      <trkpt lat="59.463165245197" lon="17.865238908377">
        <ele>26.4</ele>
        <time>2013-08-17T10:41:43Z</time>
      </trkpt>
      <trkpt lat="59.463167592129" lon="17.865381065401">
        <ele>26</ele>
        <time>2013-08-17T10:41:44Z</time>
      </trkpt>
      <trkpt lat="59.463171531622" lon="17.865523473882">
        <ele>25.6</ele>
        <time>2013-08-17T10:41:45Z</time>
      </trkpt>
      <trkpt lat="59.463176812219" lon="17.865664289802">
        <ele>25.2</ele>
        <time>2013-08-17T10:41:46Z</time>
      </trkpt>
      <trkpt lat="59.463195503856" lon="17.866371470705">
        <ele>25.2</ele>
        <time>2013-08-17T10:41:51Z</time>
      </trkpt>
      <trkpt lat="59.463223834678" lon="17.867444102448">
        <ele>25.2</ele>
        <time>2013-08-17T10:41:59Z</time>
      </trkpt>
      <trkpt lat="59.463238083908" lon="17.86786638257">
        <ele>25.2</ele>
        <time>2013-08-17T10:42:03Z</time>
      </trkpt>
      <trkpt lat="59.463254428613" lon="17.867945675344">
        <ele>25.2</ele>
        <time>2013-08-17T10:42:04Z</time>
      </trkpt>
      <trkpt lat="59.463330200989" lon="17.867983142437">
        <ele>25.2</ele>
        <time>2013-08-17T10:42:06Z</time>
      </trkpt>
      <trkpt lat="59.463416366921" lon="17.867967887379">
        <ele>25.2</ele>
        <time>2013-08-17T10:42:08Z</time>
      </trkpt>
      <trkpt lat="59.463526505087" lon="17.86796025985">
        <ele>25.2</ele>
        <time>2013-08-17T10:42:10Z</time>
      </trkpt>
      <trkpt lat="59.463810316221" lon="17.867929330639">
        <ele>25.2</ele>
        <time>2013-08-17T10:42:15Z</time>
      </trkpt>
      <trkpt lat="59.464104856187" lon="17.867882559637">
        <ele>25.6</ele>
        <time>2013-08-17T10:42:20Z</time>
      </trkpt>
      <trkpt lat="59.464160009089" lon="17.867884655112">
        <ele>26</ele>
        <time>2013-08-17T10:42:21Z</time>
      </trkpt>
      <trkpt lat="59.464214659077" lon="17.867876105574">
        <ele>26.4</ele>
        <time>2013-08-17T10:42:22Z</time>
      </trkpt>
      <trkpt lat="59.464265704848" lon="17.867873591004">
        <ele>27</ele>
        <time>2013-08-17T10:42:23Z</time>
      </trkpt>
      <trkpt lat="59.464314403687" lon="17.867871830805">
        <ele>27.4</ele>
        <time>2013-08-17T10:42:24Z</time>
      </trkpt>
      <trkpt lat="59.464407275139" lon="17.867867053122">
        <ele>27.4</ele>
        <time>2013-08-17T10:42:26Z</time>
      </trkpt>
      <trkpt lat="59.464586899256" lon="17.867859844688">
        <ele>27.8</ele>
        <time>2013-08-17T10:42:30Z</time>
      </trkpt>
      <trkpt lat="59.464632580611" lon="17.867852552435">
        <ele>28.2</ele>
        <time>2013-08-17T10:42:31Z</time>
      </trkpt>
      <trkpt lat="59.464670885894" lon="17.867860599059">
        <ele>28.6</ele>
        <time>2013-08-17T10:42:32Z</time>
      </trkpt>
      <trkpt lat="59.464711286652" lon="17.867873842461">
        <ele>29</ele>
        <time>2013-08-17T10:42:33Z</time>
      </trkpt>
      <trkpt lat="59.464747580279" lon="17.867884152198">
        <ele>29.4</ele>
        <time>2013-08-17T10:42:34Z</time>
      </trkpt>
      <trkpt lat="59.464919157772" lon="17.867958918746">
        <ele>29.8</ele>
        <time>2013-08-17T10:42:38Z</time>
      </trkpt>
      <trkpt lat="59.464964000937" lon="17.867979119125">
        <ele>30.2</ele>
        <time>2013-08-17T10:42:39Z</time>
      </trkpt>
      <trkpt lat="59.465006161894" lon="17.867980460229">
        <ele>30.6</ele>
        <time>2013-08-17T10:42:40Z</time>
      </trkpt>
      <trkpt lat="59.465052765258" lon="17.867973838528">
        <ele>31</ele>
        <time>2013-08-17T10:42:41Z</time>
      </trkpt>
      <trkpt lat="59.465092411645" lon="17.867952967597">
        <ele>31.4</ele>
        <time>2013-08-17T10:42:42Z</time>
      </trkpt>
      <trkpt lat="59.465131722756" lon="17.867938802186">
        <ele>31.4</ele>
        <time>2013-08-17T10:42:43Z</time>
      </trkpt>
      <trkpt lat="59.465218894516" lon="17.867924972051">
        <ele>31.4</ele>
        <time>2013-08-17T10:42:45Z</time>
      </trkpt>
      <trkpt lat="59.465292822874" lon="17.867929833553">
        <ele>32</ele>
        <time>2013-08-17T10:42:47Z</time>
      </trkpt>
      <trkpt lat="59.46533171489" lon="17.867928827725">
        <ele>32.4</ele>
        <time>2013-08-17T10:42:48Z</time>
      </trkpt>
      <trkpt lat="59.46537446258" lon="17.867927402802">
        <ele>32.8</ele>
        <time>2013-08-17T10:42:49Z</time>
      </trkpt>
      <trkpt lat="59.465427436188" lon="17.867936539073">
        <ele>33.2</ele>
        <time>2013-08-17T10:42:50Z</time>
      </trkpt>
      <trkpt lat="59.465487366773" lon="17.867947267905">
        <ele>33.6</ele>
        <time>2013-08-17T10:42:51Z</time>
      </trkpt>
      <trkpt lat="59.46559658293" lon="17.867965372809">
        <ele>33.6</ele>
        <time>2013-08-17T10:42:53Z</time>
      </trkpt>
      <trkpt lat="59.465835969994" lon="17.867986914292">
        <ele>33.6</ele>
        <time>2013-08-17T10:42:57Z</time>
      </trkpt>
      <trkpt lat="59.465954406241" lon="17.868028823792">
        <ele>33.6</ele>
        <time>2013-08-17T10:42:59Z</time>
      </trkpt>
      <trkpt lat="59.466366544264" lon="17.868190259186">
        <ele>33.6</ele>
        <time>2013-08-17T10:43:06Z</time>
      </trkpt>
      <trkpt lat="59.46665605509" lon="17.868307019053">
        <ele>33.6</ele>
        <time>2013-08-17T10:43:12Z</time>
      </trkpt>
      <trkpt lat="59.466989822348" lon="17.868397459754">
        <ele>33.6</ele>
        <time>2013-08-17T10:43:18Z</time>
      </trkpt>
      <trkpt lat="59.46712795606" lon="17.868386563284">
        <ele>33.6</ele>
        <time>2013-08-17T10:43:20Z</time>
      </trkpt>
      <trkpt lat="59.467342029786" lon="17.868260164232">
        <ele>33.6</ele>
        <time>2013-08-17T10:43:23Z</time>
      </trkpt>
      <trkpt lat="59.467426267881" lon="17.868179446535">
        <ele>33.6</ele>
        <time>2013-08-17T10:43:24Z</time>
      </trkpt>
      <trkpt lat="59.467516960039" lon="17.868119935045">
        <ele>33.6</ele>
        <time>2013-08-17T10:43:25Z</time>
      </trkpt>
      <trkpt lat="59.467604467075" lon="17.868074002233">
        <ele>32.6</ele>
        <time>2013-08-17T10:43:26Z</time>
      </trkpt>
      <trkpt lat="59.467691555016" lon="17.868061597021">
        <ele>32.2</ele>
        <time>2013-08-17T10:43:27Z</time>
      </trkpt>
      <trkpt lat="59.46779850806" lon="17.868114738267">
        <ele>31.8</ele>
        <time>2013-08-17T10:43:28Z</time>
      </trkpt>
      <trkpt lat="59.46789406172" lon="17.868170729359">
        <ele>31.2</ele>
        <time>2013-08-17T10:43:29Z</time>
      </trkpt>
      <trkpt lat="59.467984921516" lon="17.868225463166">
        <ele>30.6</ele>
        <time>2013-08-17T10:43:30Z</time>
      </trkpt>
      <trkpt lat="59.468077457692" lon="17.868265528648">
        <ele>30.2</ele>
        <time>2013-08-17T10:43:31Z</time>
      </trkpt>
      <trkpt lat="59.46816563528" lon="17.868289333244">
        <ele>29.6</ele>
        <time>2013-08-17T10:43:32Z</time>
      </trkpt>
      <trkpt lat="59.468256075981" lon="17.868306935234">
        <ele>29.2</ele>
        <time>2013-08-17T10:43:33Z</time>
      </trkpt>
      <trkpt lat="59.468340900809" lon="17.86830894689">
        <ele>29.2</ele>
        <time>2013-08-17T10:43:34Z</time>
      </trkpt>
      <trkpt lat="59.468741052715" lon="17.86829050671">
        <ele>29.2</ele>
        <time>2013-08-17T10:43:39Z</time>
      </trkpt>
      <trkpt lat="59.469206331984" lon="17.868267959399">
        <ele>29.2</ele>
        <time>2013-08-17T10:43:44Z</time>
      </trkpt>
      <trkpt lat="59.469290318622" lon="17.868305426492">
        <ele>28.6</ele>
        <time>2013-08-17T10:43:45Z</time>
      </trkpt>
      <trkpt lat="59.469373299432" lon="17.868345408155">
        <ele>28.2</ele>
        <time>2013-08-17T10:43:46Z</time>
      </trkpt>
      <trkpt lat="59.469451083464" lon="17.868399219953">
        <ele>27.8</ele>
        <time>2013-08-17T10:43:47Z</time>
      </trkpt>
      <trkpt lat="59.469525011822" lon="17.868462503298">
        <ele>27.2</ele>
        <time>2013-08-17T10:43:48Z</time>
      </trkpt>
      <trkpt lat="59.469597431438" lon="17.868513381431">
        <ele>26.8</ele>
        <time>2013-08-17T10:43:49Z</time>
      </trkpt>
      <trkpt lat="59.469745791068" lon="17.868578760251">
        <ele>25.8</ele>
        <time>2013-08-17T10:43:51Z</time>
      </trkpt>
      <trkpt lat="59.469815360838" lon="17.86860398977">
        <ele>25.4</ele>
        <time>2013-08-17T10:43:52Z</time>
      </trkpt>
      <trkpt lat="59.469883757142" lon="17.868628548737">
        <ele>25</ele>
        <time>2013-08-17T10:43:53Z</time>
      </trkpt>
      <trkpt lat="59.469946705211" lon="17.868660567595">
        <ele>24.6</ele>
        <time>2013-08-17T10:43:54Z</time>
      </trkpt>
      <trkpt lat="59.46999372767" lon="17.868713457384">
        <ele>24.6</ele>
        <time>2013-08-17T10:43:55Z</time>
      </trkpt>
      <trkpt lat="59.470028512555" lon="17.868807921397">
        <ele>24.6</ele>
        <time>2013-08-17T10:43:56Z</time>
      </trkpt>
      <trkpt lat="59.470059860861" lon="17.869185274535">
        <ele>24.6</ele>
        <time>2013-08-17T10:43:59Z</time>
      </trkpt>
      <trkpt lat="59.470063045983" lon="17.869320558401">
        <ele>24.6</ele>
        <time>2013-08-17T10:44:00Z</time>
      </trkpt>
      <trkpt lat="59.470057178653" lon="17.869602860793">
        <ele>24.6</ele>
        <time>2013-08-17T10:44:02Z</time>
      </trkpt>
      <trkpt lat="59.470029434564" lon="17.869877451837">
        <ele>24.6</ele>
        <time>2013-08-17T10:44:04Z</time>
      </trkpt>
      <trkpt lat="59.469883254228" lon="17.870906916795">
        <ele>24.6</ele>
        <time>2013-08-17T10:44:12Z</time>
      </trkpt>
      <trkpt lat="59.469862802392" lon="17.871028454345">
        <ele>24.2</ele>
        <time>2013-08-17T10:44:13Z</time>
      </trkpt>
      <trkpt lat="59.469842518194" lon="17.871148566972">
        <ele>23.8</ele>
        <time>2013-08-17T10:44:14Z</time>
      </trkpt>
      <trkpt lat="59.469819970883" lon="17.871265410658">
        <ele>22.8</ele>
        <time>2013-08-17T10:44:15Z</time>
      </trkpt>
      <trkpt lat="59.469800357237" lon="17.871363478888">
        <ele>22.4</ele>
        <time>2013-08-17T10:44:16Z</time>
      </trkpt>
      <trkpt lat="59.469754927339" lon="17.871557268416">
        <ele>22.4</ele>
        <time>2013-08-17T10:44:18Z</time>
      </trkpt>
      <trkpt lat="59.469684016465" lon="17.871846024871">
        <ele>22.4</ele>
        <time>2013-08-17T10:44:21Z</time>
      </trkpt>
      <trkpt lat="59.469650405046" lon="17.872138888457">
        <ele>22.4</ele>
        <time>2013-08-17T10:44:24Z</time>
      </trkpt>
      <trkpt lat="59.469635401445" lon="17.872225054389">
        <ele>22.4</ele>
        <time>2013-08-17T10:44:25Z</time>
      </trkpt>
      <trkpt lat="59.469617799455" lon="17.872404427049">
        <ele>22.4</ele>
        <time>2013-08-17T10:44:27Z</time>
      </trkpt>
      <trkpt lat="59.469632719237" lon="17.872576507456">
        <ele>22.4</ele>
        <time>2013-08-17T10:44:29Z</time>
      </trkpt>
      <trkpt lat="59.469763979791" lon="17.872860821504">
        <ele>22.4</ele>
        <time>2013-08-17T10:44:33Z</time>
      </trkpt>
      <trkpt lat="59.469875039966" lon="17.872984454529">
        <ele>22.4</ele>
        <time>2013-08-17T10:44:35Z</time>
      </trkpt>
      <trkpt lat="59.470007557805" lon="17.873137340385">
        <ele>22.4</ele>
        <time>2013-08-17T10:44:37Z</time>
      </trkpt>
      <trkpt lat="59.470458671663" lon="17.873599685989">
        <ele>22.4</ele>
        <time>2013-08-17T10:44:44Z</time>
      </trkpt>
      <trkpt lat="59.470600661049" lon="17.873700939341">
        <ele>22.4</ele>
        <time>2013-08-17T10:44:46Z</time>
      </trkpt>
      <trkpt lat="59.470762766995" lon="17.873721642634">
        <ele>22.4</ele>
        <time>2013-08-17T10:44:48Z</time>
      </trkpt>
      <trkpt lat="59.471013553443" lon="17.873647798095">
        <ele>22.4</ele>
        <time>2013-08-17T10:44:51Z</time>
      </trkpt>
      <trkpt lat="59.471095025511" lon="17.873622484757">
        <ele>23</ele>
        <time>2013-08-17T10:44:52Z</time>
      </trkpt>
      <trkpt lat="59.471173563914" lon="17.873603122568">
        <ele>23.4</ele>
        <time>2013-08-17T10:44:53Z</time>
      </trkpt>
      <trkpt lat="59.471251096489" lon="17.873580742895">
        <ele>24</ele>
        <time>2013-08-17T10:44:54Z</time>
      </trkpt>
      <trkpt lat="59.471327036503" lon="17.873546377105">
        <ele>24.4</ele>
        <time>2013-08-17T10:44:55Z</time>
      </trkpt>
      <trkpt lat="59.471401970689" lon="17.873508910012">
        <ele>25</ele>
        <time>2013-08-17T10:44:56Z</time>
      </trkpt>
      <trkpt lat="59.471535913451" lon="17.873418217854">
        <ele>25</ele>
        <time>2013-08-17T10:44:58Z</time>
      </trkpt>
      <trkpt lat="59.471813857255" lon="17.873137927118">
        <ele>25</ele>
        <time>2013-08-17T10:45:03Z</time>
      </trkpt>
      <trkpt lat="59.471854006556" lon="17.873070452823">
        <ele>25</ele>
        <time>2013-08-17T10:45:04Z</time>
      </trkpt>
      <trkpt lat="59.47201041281" lon="17.872787312241">
        <ele>25</ele>
        <time>2013-08-17T10:45:08Z</time>
      </trkpt>
      <trkpt lat="59.472168076349" lon="17.87271866448">
        <ele>25</ele>
        <time>2013-08-17T10:45:11Z</time>
      </trkpt>
      <trkpt lat="59.472419281892" lon="17.872811955027">
        <ele>25</ele>
        <time>2013-08-17T10:45:16Z</time>
      </trkpt>
      <trkpt lat="59.472513578267" lon="17.872877836761">
        <ele>25.4</ele>
        <time>2013-08-17T10:45:18Z</time>
      </trkpt>
      <trkpt lat="59.472563282934" lon="17.87291899189">
        <ele>25.8</ele>
        <time>2013-08-17T10:45:19Z</time>
      </trkpt>
      <trkpt lat="59.472602258769" lon="17.872976072629">
        <ele>26.2</ele>
        <time>2013-08-17T10:45:20Z</time>
      </trkpt>
      <trkpt lat="59.472641737518" lon="17.873049330435">
        <ele>26.6</ele>
        <time>2013-08-17T10:45:21Z</time>
      </trkpt>
      <trkpt lat="59.47267845024" lon="17.873119486938">
        <ele>27</ele>
        <time>2013-08-17T10:45:22Z</time>
      </trkpt>
      <trkpt lat="59.472792946994" lon="17.873296680304">
        <ele>27</ele>
        <time>2013-08-17T10:45:25Z</time>
      </trkpt>
      <trkpt lat="59.47283686815" lon="17.873329285895">
        <ele>27</ele>
        <time>2013-08-17T10:45:26Z</time>
      </trkpt>
      <trkpt lat="59.473013390964" lon="17.873472700204">
        <ele>27</ele>
        <time>2013-08-17T10:45:30Z</time>
      </trkpt>
      <trkpt lat="59.47306066488" lon="17.873547969666">
        <ele>27</ele>
        <time>2013-08-17T10:45:31Z</time>
      </trkpt>
      <trkpt lat="59.473239366988" lon="17.873966813209">
        <ele>27</ele>
        <time>2013-08-17T10:45:35Z</time>
      </trkpt>
      <trkpt lat="59.473257220435" lon="17.874403761656">
        <ele>27</ele>
        <time>2013-08-17T10:45:38Z</time>
      </trkpt>
      <trkpt lat="59.473241211006" lon="17.874577266986">
        <ele>27</ele>
        <time>2013-08-17T10:45:39Z</time>
      </trkpt>
      <trkpt lat="59.473213969831" lon="17.875602457175">
        <ele>27</ele>
        <time>2013-08-17T10:45:45Z</time>
      </trkpt>
      <trkpt lat="59.473243474119" lon="17.876146442485">
        <ele>26.6</ele>
        <time>2013-08-17T10:45:48Z</time>
      </trkpt>
      <trkpt lat="59.473263842136" lon="17.876337382167">
        <ele>26.2</ele>
        <time>2013-08-17T10:45:49Z</time>
      </trkpt>
      <trkpt lat="59.473284545429" lon="17.876510719859">
        <ele>25.8</ele>
        <time>2013-08-17T10:45:50Z</time>
      </trkpt>
      <trkpt lat="59.473310194043" lon="17.876678441678">
        <ele>25.4</ele>
        <time>2013-08-17T10:45:51Z</time>
      </trkpt>
      <trkpt lat="59.473339195417" lon="17.876838955063">
        <ele>24.8</ele>
        <time>2013-08-17T10:45:52Z</time>
      </trkpt>
      <trkpt lat="59.473404658056" lon="17.877321752503">
        <ele>24.8</ele>
        <time>2013-08-17T10:45:55Z</time>
      </trkpt>
      <trkpt lat="59.473531895298" lon="17.878311654893">
        <ele>24.4</ele>
        <time>2013-08-17T10:46:01Z</time>
      </trkpt>
      <trkpt lat="59.47355603517" lon="17.878479292893">
        <ele>24</ele>
        <time>2013-08-17T10:46:02Z</time>
      </trkpt>
      <trkpt lat="59.473578833938" lon="17.878646176522">
        <ele>23.6</ele>
        <time>2013-08-17T10:46:03Z</time>
      </trkpt>
      <trkpt lat="59.473594759548" lon="17.878825046268">
        <ele>23.2</ele>
        <time>2013-08-17T10:46:04Z</time>
      </trkpt>
      <trkpt lat="59.473618228868" lon="17.879002239634">
        <ele>22.8</ele>
        <time>2013-08-17T10:46:05Z</time>
      </trkpt>
      <trkpt lat="59.473667765897" lon="17.879353944158">
        <ele>22.8</ele>
        <time>2013-08-17T10:46:07Z</time>
      </trkpt>
      <trkpt lat="59.47379911027" lon="17.880320880142">
        <ele>22.8</ele>
        <time>2013-08-17T10:46:13Z</time>
      </trkpt>
      <trkpt lat="59.473914696671" lon="17.881425614562">
        <ele>22.8</ele>
        <time>2013-08-17T10:46:20Z</time>
      </trkpt>
      <trkpt lat="59.473934645593" lon="17.881592079096">
        <ele>22.8</ele>
        <time>2013-08-17T10:46:21Z</time>
      </trkpt>
      <trkpt lat="59.474086693259" lon="17.88265121598">
        <ele>22.8</ele>
        <time>2013-08-17T10:46:28Z</time>
      </trkpt>
      <trkpt lat="59.474200687099" lon="17.883405503161">
        <ele>22.4</ele>
        <time>2013-08-17T10:46:33Z</time>
      </trkpt>
      <trkpt lat="59.474224659333" lon="17.883559059569">
        <ele>22</ele>
        <time>2013-08-17T10:46:34Z</time>
      </trkpt>
      <trkpt lat="59.474246452273" lon="17.883709430855">
        <ele>21.4</ele>
        <time>2013-08-17T10:46:35Z</time>
      </trkpt>
      <trkpt lat="59.474267742299" lon="17.88386826786">
        <ele>21</ele>
        <time>2013-08-17T10:46:36Z</time>
      </trkpt>
      <trkpt lat="59.474280147511" lon="17.884034564756">
        <ele>20.6</ele>
        <time>2013-08-17T10:46:37Z</time>
      </trkpt>
      <trkpt lat="59.474326667056" lon="17.884521888422">
        <ele>20.6</ele>
        <time>2013-08-17T10:46:40Z</time>
      </trkpt>
      <trkpt lat="59.4744503839" lon="17.885317330732">
        <ele>20.6</ele>
        <time>2013-08-17T10:46:45Z</time>
      </trkpt>
      <trkpt lat="59.474499334196" lon="17.885621593702">
        <ele>20.6</ele>
        <time>2013-08-17T10:46:47Z</time>
      </trkpt>
      <trkpt lat="59.47453252652" lon="17.88592770069">
        <ele>20.2</ele>
        <time>2013-08-17T10:46:49Z</time>
      </trkpt>
      <trkpt lat="59.474550044691" lon="17.886075808863">
        <ele>19.8</ele>
        <time>2013-08-17T10:46:50Z</time>
      </trkpt>
      <trkpt lat="59.47456437774" lon="17.886220396638">
        <ele>19.4</ele>
        <time>2013-08-17T10:46:51Z</time>
      </trkpt>
      <trkpt lat="59.474577202047" lon="17.886370600286">
        <ele>19</ele>
        <time>2013-08-17T10:46:52Z</time>
      </trkpt>
      <trkpt lat="59.47459622896" lon="17.886526587445">
        <ele>18.6</ele>
        <time>2013-08-17T10:46:53Z</time>
      </trkpt>
      <trkpt lat="59.474633193139" lon="17.886969403222">
        <ele>18.6</ele>
        <time>2013-08-17T10:46:56Z</time>
      </trkpt>
      <trkpt lat="59.47463981484" lon="17.887116086472">
        <ele>18</ele>
        <time>2013-08-17T10:46:57Z</time>
      </trkpt>
      <trkpt lat="59.474644592523" lon="17.887274252925">
        <ele>17.6</ele>
        <time>2013-08-17T10:46:58Z</time>
      </trkpt>
      <trkpt lat="59.474639144288" lon="17.887449099359">
        <ele>17.2</ele>
        <time>2013-08-17T10:46:59Z</time>
      </trkpt>
      <trkpt lat="59.474629337465" lon="17.88761330078">
        <ele>16.8</ele>
        <time>2013-08-17T10:47:00Z</time>
      </trkpt>
      <trkpt lat="59.474619865918" lon="17.887774317079">
        <ele>16.4</ele>
        <time>2013-08-17T10:47:01Z</time>
      </trkpt>
      <trkpt lat="59.474603521213" lon="17.888102384645">
        <ele>15.8</ele>
        <time>2013-08-17T10:47:03Z</time>
      </trkpt>
      <trkpt lat="59.474588517612" lon="17.888274213595">
        <ele>15.4</ele>
        <time>2013-08-17T10:47:04Z</time>
      </trkpt>
      <trkpt lat="59.474565970301" lon="17.8884414325">
        <ele>14.8</ele>
        <time>2013-08-17T10:47:05Z</time>
      </trkpt>
      <trkpt lat="59.474537471841" lon="17.888595575641">
        <ele>14.4</ele>
        <time>2013-08-17T10:47:06Z</time>
      </trkpt>
      <trkpt lat="59.474490030287" lon="17.888746030746">
        <ele>14</ele>
        <time>2013-08-17T10:47:07Z</time>
      </trkpt>
      <trkpt lat="59.474384753623" lon="17.889011904614">
        <ele>13.4</ele>
        <time>2013-08-17T10:47:09Z</time>
      </trkpt>
      <trkpt lat="59.474339239906" lon="17.889139393313">
        <ele>13</ele>
        <time>2013-08-17T10:47:10Z</time>
      </trkpt>
      <trkpt lat="59.474300766985" lon="17.889282220889">
        <ele>12.6</ele>
        <time>2013-08-17T10:47:11Z</time>
      </trkpt>
      <trkpt lat="59.47426514391" lon="17.889427563035">
        <ele>12.2</ele>
        <time>2013-08-17T10:47:12Z</time>
      </trkpt>
      <trkpt lat="59.474236729269" lon="17.889574413923">
        <ele>11.8</ele>
        <time>2013-08-17T10:47:13Z</time>
      </trkpt>
      <trkpt lat="59.474162968549" lon="17.889987222498">
        <ele>11.4</ele>
        <time>2013-08-17T10:47:16Z</time>
      </trkpt>
      <trkpt lat="59.474143271084" lon="17.890109598238">
        <ele>11</ele>
        <time>2013-08-17T10:47:17Z</time>
      </trkpt>
      <trkpt lat="59.474126088189" lon="17.890237925127">
        <ele>10.6</ele>
        <time>2013-08-17T10:47:18Z</time>
      </trkpt>
      <trkpt lat="59.474112341873" lon="17.890370442966">
        <ele>10.2</ele>
        <time>2013-08-17T10:47:19Z</time>
      </trkpt>
      <trkpt lat="59.474098008824" lon="17.890502038796">
        <ele>9.8</ele>
        <time>2013-08-17T10:47:20Z</time>
      </trkpt>
      <trkpt lat="59.474070432373" lon="17.890776462202">
        <ele>9.8</ele>
        <time>2013-08-17T10:47:22Z</time>
      </trkpt>
      <trkpt lat="59.474045621949" lon="17.891153982978">
        <ele>9.4</ele>
        <time>2013-08-17T10:47:25Z</time>
      </trkpt>
      <trkpt lat="59.474039419343" lon="17.891272503044">
        <ele>9</ele>
        <time>2013-08-17T10:47:26Z</time>
      </trkpt>
      <trkpt lat="59.47403212709" lon="17.891392112757">
        <ele>8.6</ele>
        <time>2013-08-17T10:47:27Z</time>
      </trkpt>
      <trkpt lat="59.474028522873" lon="17.891509878452">
        <ele>8.2</ele>
        <time>2013-08-17T10:47:28Z</time>
      </trkpt>
      <trkpt lat="59.474024499561" lon="17.891618507876">
        <ele>7.8</ele>
        <time>2013-08-17T10:47:29Z</time>
      </trkpt>
      <trkpt lat="59.47400698139" lon="17.891915059498">
        <ele>7.8</ele>
        <time>2013-08-17T10:47:33Z</time>
      </trkpt>
      <trkpt lat="59.473998180395" lon="17.891992675892">
        <ele>7.8</ele>
        <time>2013-08-17T10:47:34Z</time>
      </trkpt>
      <trkpt lat="59.473934394136" lon="17.892260477597">
        <ele>7.8</ele>
        <time>2013-08-17T10:47:37Z</time>
      </trkpt>
      <trkpt lat="59.473799361727" lon="17.892951397614">
        <ele>7.8</ele>
        <time>2013-08-17T10:47:44Z</time>
      </trkpt>
      <trkpt lat="59.473775221855" lon="17.893053237699">
        <ele>8.2</ele>
        <time>2013-08-17T10:47:45Z</time>
      </trkpt>
      <trkpt lat="59.473752003992" lon="17.893157173259">
        <ele>8.6</ele>
        <time>2013-08-17T10:47:46Z</time>
      </trkpt>
      <trkpt lat="59.473730294871" lon="17.893269909814">
        <ele>9</ele>
        <time>2013-08-17T10:47:47Z</time>
      </trkpt>
      <trkpt lat="59.473707999017" lon="17.893373929193">
        <ele>9.6</ele>
        <time>2013-08-17T10:47:48Z</time>
      </trkpt>
      <trkpt lat="59.473682685679" lon="17.893479038219">
        <ele>10</ele>
        <time>2013-08-17T10:47:49Z</time>
      </trkpt>
      <trkpt lat="59.473634657392" lon="17.893702248216">
        <ele>10</ele>
        <time>2013-08-17T10:47:51Z</time>
      </trkpt>
      <trkpt lat="59.473438940027" lon="17.894567511753">
        <ele>10</ele>
        <time>2013-08-17T10:47:59Z</time>
      </trkpt>
      <trkpt lat="59.473228973432" lon="17.89552329981">
        <ele>10</ele>
        <time>2013-08-17T10:48:08Z</time>
      </trkpt>
      <trkpt lat="59.473038788121" lon="17.896389233899">
        <ele>10.4</ele>
        <time>2013-08-17T10:48:16Z</time>
      </trkpt>
      <trkpt lat="59.473016408448" lon="17.896494175287">
        <ele>10.8</ele>
        <time>2013-08-17T10:48:17Z</time>
      </trkpt>
      <trkpt lat="59.472993022947" lon="17.896589980404">
        <ele>11.4</ele>
        <time>2013-08-17T10:48:18Z</time>
      </trkpt>
      <trkpt lat="59.472972738749" lon="17.896685534064">
        <ele>11.8</ele>
        <time>2013-08-17T10:48:19Z</time>
      </trkpt>
      <trkpt lat="59.472952286913" lon="17.896780165715">
        <ele>12.2</ele>
        <time>2013-08-17T10:48:20Z</time>
      </trkpt>
      <trkpt lat="59.472914987458" lon="17.896967082085">
        <ele>12.6</ele>
        <time>2013-08-17T10:48:22Z</time>
      </trkpt>
      <trkpt lat="59.472895289993" lon="17.897056181682">
        <ele>13</ele>
        <time>2013-08-17T10:48:23Z</time>
      </trkpt>
      <trkpt lat="59.47287291032" lon="17.897142934347">
        <ele>13.4</ele>
        <time>2013-08-17T10:48:24Z</time>
      </trkpt>
      <trkpt lat="59.472853464312" lon="17.89722817827">
        <ele>13.8</ele>
        <time>2013-08-17T10:48:25Z</time>
      </trkpt>
      <trkpt lat="59.472836281417" lon="17.897316104401">
        <ele>14.4</ele>
        <time>2013-08-17T10:48:26Z</time>
      </trkpt>
      <trkpt lat="59.472769058579" lon="17.897709047873">
        <ele>14.4</ele>
        <time>2013-08-17T10:48:31Z</time>
      </trkpt>
      <trkpt lat="59.472732178219" lon="17.897965450194">
        <ele>14.4</ele>
        <time>2013-08-17T10:48:34Z</time>
      </trkpt>
      <trkpt lat="59.472704266492" lon="17.898111379073">
        <ele>14.4</ele>
        <time>2013-08-17T10:48:36Z</time>
      </trkpt>
      <trkpt lat="59.472675684213" lon="17.898271138087">
        <ele>14.8</ele>
        <time>2013-08-17T10:48:38Z</time>
      </trkpt>
      <trkpt lat="59.472659758603" lon="17.898356130553">
        <ele>15.2</ele>
        <time>2013-08-17T10:48:39Z</time>
      </trkpt>
      <trkpt lat="59.472648862133" lon="17.898434417499">
        <ele>15.6</ele>
        <time>2013-08-17T10:48:40Z</time>
      </trkpt>
      <trkpt lat="59.472635618731" lon="17.898505915106">
        <ele>16</ele>
        <time>2013-08-17T10:48:41Z</time>
      </trkpt>
      <trkpt lat="59.472620447492" lon="17.898576323066">
        <ele>16.4</ele>
        <time>2013-08-17T10:48:42Z</time>
      </trkpt>
      <trkpt lat="59.472604270425" lon="17.898654610012">
        <ele>16.4</ele>
        <time>2013-08-17T10:48:43Z</time>
      </trkpt>
      <trkpt lat="59.472466974903" lon="17.899269003282">
        <ele>16.4</ele>
        <time>2013-08-17T10:48:50Z</time>
      </trkpt>
      <trkpt lat="59.472414588028" lon="17.899538481367">
        <ele>16.8</ele>
        <time>2013-08-17T10:48:53Z</time>
      </trkpt>
      <trkpt lat="59.472395812572" lon="17.899629257344">
        <ele>17.2</ele>
        <time>2013-08-17T10:48:54Z</time>
      </trkpt>
      <trkpt lat="59.472375696012" lon="17.899721458244">
        <ele>17.6</ele>
        <time>2013-08-17T10:48:55Z</time>
      </trkpt>
      <trkpt lat="59.472353903072" lon="17.899814664972">
        <ele>18</ele>
        <time>2013-08-17T10:48:56Z</time>
      </trkpt>
      <trkpt lat="59.472333199779" lon="17.899916756514">
        <ele>18.4</ele>
        <time>2013-08-17T10:48:57Z</time>
      </trkpt>
      <trkpt lat="59.472291877012" lon="17.900115072268">
        <ele>18.4</ele>
        <time>2013-08-17T10:48:59Z</time>
      </trkpt>
      <trkpt lat="59.472158101888" lon="17.900755533247">
        <ele>18.4</ele>
        <time>2013-08-17T10:49:06Z</time>
      </trkpt>
      <trkpt lat="59.471988200775" lon="17.901545778779">
        <ele>18.4</ele>
        <time>2013-08-17T10:49:14Z</time>
      </trkpt>
      <trkpt lat="59.471815533635" lon="17.902390171385">
        <ele>18.4</ele>
        <time>2013-08-17T10:49:22Z</time>
      </trkpt>
      <trkpt lat="59.471643369409" lon="17.903173376121">
        <ele>18</ele>
        <time>2013-08-17T10:49:29Z</time>
      </trkpt>
      <trkpt lat="59.471611099094" lon="17.903284268658">
        <ele>17.6</ele>
        <time>2013-08-17T10:49:30Z</time>
      </trkpt>
      <trkpt lat="59.471573799639" lon="17.903378984128">
        <ele>17.2</ele>
        <time>2013-08-17T10:49:31Z</time>
      </trkpt>
      <trkpt lat="59.47153851184" lon="17.903477639091">
        <ele>16.8</ele>
        <time>2013-08-17T10:49:32Z</time>
      </trkpt>
      <trkpt lat="59.471500038919" lon="17.903581323194">
        <ele>16.4</ele>
        <time>2013-08-17T10:49:33Z</time>
      </trkpt>
      <trkpt lat="59.471425691466" lon="17.903795480739">
        <ele>16.4</ele>
        <time>2013-08-17T10:49:35Z</time>
      </trkpt>
      <trkpt lat="59.471118243374" lon="17.904743976543">
        <ele>16.4</ele>
        <time>2013-08-17T10:49:44Z</time>
      </trkpt>
      <trkpt lat="59.470950018641" lon="17.905314281019">
        <ele>16</ele>
        <time>2013-08-17T10:49:49Z</time>
      </trkpt>
      <trkpt lat="59.470916323403" lon="17.905426933755">
        <ele>15.4</ele>
        <time>2013-08-17T10:49:50Z</time>
      </trkpt>
      <trkpt lat="59.470879526862" lon="17.905541011414">
        <ele>15</ele>
        <time>2013-08-17T10:49:51Z</time>
      </trkpt>
      <trkpt lat="59.470846083081" lon="17.905660788765">
        <ele>14.6</ele>
        <time>2013-08-17T10:49:52Z</time>
      </trkpt>
      <trkpt lat="59.470811968748" lon="17.905774028234">
        <ele>14.2</ele>
        <time>2013-08-17T10:49:53Z</time>
      </trkpt>
      <trkpt lat="59.470673751217" lon="17.906202930057">
        <ele>14.2</ele>
        <time>2013-08-17T10:49:57Z</time>
      </trkpt>
      <trkpt lat="59.470586495638" lon="17.906529488881">
        <ele>14.2</ele>
        <time>2013-08-17T10:50:00Z</time>
      </trkpt>
      <trkpt lat="59.47057710791" lon="17.906790165971">
        <ele>14.2</ele>
        <time>2013-08-17T10:50:02Z</time>
      </trkpt>
      <trkpt lat="59.470696382347" lon="17.907155532992">
        <ele>14.2</ele>
        <time>2013-08-17T10:50:05Z</time>
      </trkpt>
      <trkpt lat="59.470931410823" lon="17.907351417995">
        <ele>14.2</ele>
        <time>2013-08-17T10:50:08Z</time>
      </trkpt>
      <trkpt lat="59.471012715253" lon="17.907411516218">
        <ele>13.8</ele>
        <time>2013-08-17T10:50:09Z</time>
      </trkpt>
      <trkpt lat="59.47109091838" lon="17.90746331636">
        <ele>13.2</ele>
        <time>2013-08-17T10:50:10Z</time>
      </trkpt>
      <trkpt lat="59.471164092367" lon="17.907510674095">
        <ele>12.8</ele>
        <time>2013-08-17T10:50:11Z</time>
      </trkpt>
      <trkpt lat="59.471236511983" lon="17.907554595251">
        <ele>12.4</ele>
        <time>2013-08-17T10:50:12Z</time>
      </trkpt>
      <trkpt lat="59.471310859436" lon="17.907625254668">
        <ele>11.8</ele>
        <time>2013-08-17T10:50:13Z</time>
      </trkpt>
      <trkpt lat="59.47136333013" lon="17.907755509394">
        <ele>11.8</ele>
        <time>2013-08-17T10:50:14Z</time>
      </trkpt>
      <trkpt lat="59.471367856356" lon="17.908043595297">
        <ele>11.8</ele>
        <time>2013-08-17T10:50:16Z</time>
      </trkpt>
      <trkpt lat="59.471280433139" lon="17.908488506549">
        <ele>11.8</ele>
        <time>2013-08-17T10:50:19Z</time>
      </trkpt>
      <trkpt lat="59.471252856688" lon="17.908636614722">
        <ele>12.4</ele>
        <time>2013-08-17T10:50:20Z</time>
      </trkpt>
      <trkpt lat="59.471222849486" lon="17.908790422587">
        <ele>13</ele>
        <time>2013-08-17T10:50:21Z</time>
      </trkpt>
      <trkpt lat="59.471192255551" lon="17.90893014886">
        <ele>13.4</ele>
        <time>2013-08-17T10:50:22Z</time>
      </trkpt>
      <trkpt lat="59.471164427643" lon="17.909066103278">
        <ele>14</ele>
        <time>2013-08-17T10:50:23Z</time>
      </trkpt>
      <trkpt lat="59.471136013002" lon="17.909205326637">
        <ele>15</ele>
        <time>2013-08-17T10:50:24Z</time>
      </trkpt>
      <trkpt lat="59.47110935856" lon="17.90934756748">
        <ele>15.6</ele>
        <time>2013-08-17T10:50:25Z</time>
      </trkpt>
      <trkpt lat="59.471082117385" lon="17.909490395056">
        <ele>16</ele>
        <time>2013-08-17T10:50:26Z</time>
      </trkpt>
      <trkpt lat="59.471058396608" lon="17.909636323935">
        <ele>16.6</ele>
        <time>2013-08-17T10:50:27Z</time>
      </trkpt>
      <trkpt lat="59.470930991728" lon="17.910322550088">
        <ele>16.6</ele>
        <time>2013-08-17T10:50:32Z</time>
      </trkpt>
      <trkpt lat="59.470869049487" lon="17.910697640113">
        <ele>16.6</ele>
        <time>2013-08-17T10:50:35Z</time>
      </trkpt>
      <trkpt lat="59.470869887677" lon="17.910827894839">
        <ele>16.6</ele>
        <time>2013-08-17T10:50:36Z</time>
      </trkpt>
      <trkpt lat="59.4708796945" lon="17.911519988322">
        <ele>16.6</ele>
        <time>2013-08-17T10:50:42Z</time>
      </trkpt>
      <trkpt lat="59.470890423332" lon="17.91170623414">
        <ele>17</ele>
        <time>2013-08-17T10:50:44Z</time>
      </trkpt>
      <trkpt lat="59.470898721413" lon="17.911800362877">
        <ele>17.4</ele>
        <time>2013-08-17T10:50:45Z</time>
      </trkpt>
      <trkpt lat="59.470907857684" lon="17.911891222673">
        <ele>17.8</ele>
        <time>2013-08-17T10:50:46Z</time>
      </trkpt>
      <trkpt lat="59.470921184905" lon="17.911984177944">
        <ele>18.2</ele>
        <time>2013-08-17T10:50:47Z</time>
      </trkpt>
      <trkpt lat="59.470937445791" lon="17.912074367188">
        <ele>18.6</ele>
        <time>2013-08-17T10:50:48Z</time>
      </trkpt>
      <trkpt lat="59.470955550695" lon="17.912159862568">
        <ele>18.6</ele>
        <time>2013-08-17T10:50:49Z</time>
      </trkpt>
      <trkpt lat="59.471004668629" lon="17.912331691518">
        <ele>19</ele>
        <time>2013-08-17T10:50:51Z</time>
      </trkpt>
      <trkpt lat="59.471033167089" lon="17.912418863278">
        <ele>19.4</ele>
        <time>2013-08-17T10:50:52Z</time>
      </trkpt>
      <trkpt lat="59.471067951974" lon="17.912494468016">
        <ele>20</ele>
        <time>2013-08-17T10:50:53Z</time>
      </trkpt>
      <trkpt lat="59.471105754343" lon="17.912566133261">
        <ele>20.4</ele>
        <time>2013-08-17T10:50:54Z</time>
      </trkpt>
      <trkpt lat="59.471143808169" lon="17.912637379411">
        <ele>20.8</ele>
        <time>2013-08-17T10:50:55Z</time>
      </trkpt>
      <trkpt lat="59.471357630438" lon="17.912916412862">
        <ele>20.8</ele>
        <time>2013-08-17T10:51:00Z</time>
      </trkpt>
      <trkpt lat="59.471676980828" lon="17.913237858727">
        <ele>20.8</ele>
        <time>2013-08-17T10:51:06Z</time>
      </trkpt>
      <trkpt lat="59.472135806034" lon="17.913648739465">
        <ele>20.8</ele>
        <time>2013-08-17T10:51:13Z</time>
      </trkpt>
      <trkpt lat="59.472212584238" lon="17.913720572348">
        <ele>20.4</ele>
        <time>2013-08-17T10:51:14Z</time>
      </trkpt>
      <trkpt lat="59.472295732686" lon="17.913796177086">
        <ele>19.8</ele>
        <time>2013-08-17T10:51:15Z</time>
      </trkpt>
      <trkpt lat="59.472381060428" lon="17.913885947235">
        <ele>19.4</ele>
        <time>2013-08-17T10:51:16Z</time>
      </trkpt>
      <trkpt lat="59.472466639627" lon="17.913975717384">
        <ele>18.8</ele>
        <time>2013-08-17T10:51:17Z</time>
      </trkpt>
      <trkpt lat="59.472557834699" lon="17.914063308239">
        <ele>18.4</ele>
        <time>2013-08-17T10:51:18Z</time>
      </trkpt>
      <trkpt lat="59.472651460522" lon="17.914154084216">
        <ele>17.8</ele>
        <time>2013-08-17T10:51:19Z</time>
      </trkpt>
      <trkpt lat="59.472747349458" lon="17.914246955668">
        <ele>17.4</ele>
        <time>2013-08-17T10:51:20Z</time>
      </trkpt>
      <trkpt lat="59.472845585326" lon="17.914336390541">
        <ele>16.8</ele>
        <time>2013-08-17T10:51:21Z</time>
      </trkpt>
      <trkpt lat="59.472944659384" lon="17.914431608925">
        <ele>16.4</ele>
        <time>2013-08-17T10:51:22Z</time>
      </trkpt>
      <trkpt lat="59.473044068718" lon="17.914525150929">
        <ele>15.8</ele>
        <time>2013-08-17T10:51:23Z</time>
      </trkpt>
      <trkpt lat="59.473146244079" lon="17.91462229715">
        <ele>15.2</ele>
        <time>2013-08-17T10:51:24Z</time>
      </trkpt>
      <trkpt lat="59.473240456635" lon="17.9147103071">
        <ele>14.8</ele>
        <time>2013-08-17T10:51:25Z</time>
      </trkpt>
      <trkpt lat="59.473328801861" lon="17.914791276254">
        <ele>14.2</ele>
        <time>2013-08-17T10:51:26Z</time>
      </trkpt>
      <trkpt lat="59.473403819866" lon="17.914861600395">
        <ele>13.8</ele>
        <time>2013-08-17T10:51:27Z</time>
      </trkpt>
      <trkpt lat="59.473464253365" lon="17.914917507668">
        <ele>13.2</ele>
        <time>2013-08-17T10:51:28Z</time>
      </trkpt>
      <trkpt lat="59.473518568077" lon="17.914995124062">
        <ele>12.6</ele>
        <time>2013-08-17T10:51:29Z</time>
      </trkpt>
      <trkpt lat="59.473553855876" lon="17.915097886156">
        <ele>12</ele>
        <time>2013-08-17T10:51:30Z</time>
      </trkpt>
      <trkpt lat="59.473561315767" lon="17.915200312974">
        <ele>11.4</ele>
        <time>2013-08-17T10:51:31Z</time>
      </trkpt>
      <trkpt lat="59.47357279897" lon="17.915268625459">
        <ele>10.8</ele>
        <time>2013-08-17T10:51:32Z</time>
      </trkpt>
      <trkpt lat="59.47360213562" lon="17.915297794471">
        <ele>10.2</ele>
        <time>2013-08-17T10:51:33Z</time>
      </trkpt>
      <trkpt lat="59.473639351256" lon="17.915341045075">
        <ele>9.6</ele>
        <time>2013-08-17T10:51:34Z</time>
      </trkpt>
      <trkpt lat="59.473844959263" lon="17.915558052466">
        <ele>9.6</ele>
        <time>2013-08-17T10:51:39Z</time>
      </trkpt>
      <trkpt lat="59.474024918656" lon="17.915738933868">
        <ele>10</ele>
        <time>2013-08-17T10:51:44Z</time>
      </trkpt>
      <trkpt lat="59.474062553387" lon="17.915770198355">
        <ele>10.4</ele>
        <time>2013-08-17T10:51:45Z</time>
      </trkpt>
      <trkpt lat="59.474100104299" lon="17.915799199729">
        <ele>10.8</ele>
        <time>2013-08-17T10:51:46Z</time>
      </trkpt>
      <trkpt lat="59.474140421238" lon="17.915829542207">
        <ele>11.2</ele>
        <time>2013-08-17T10:51:47Z</time>
      </trkpt>
      <trkpt lat="59.474178475064" lon="17.915865752015">
        <ele>11.6</ele>
        <time>2013-08-17T10:51:48Z</time>
      </trkpt>
      <trkpt lat="59.474292887999" lon="17.915960132209">
        <ele>11.6</ele>
        <time>2013-08-17T10:51:51Z</time>
      </trkpt>
      <trkpt lat="59.474335300413" lon="17.916001371157">
        <ele>12</ele>
        <time>2013-08-17T10:51:52Z</time>
      </trkpt>
      <trkpt lat="59.474380897949" lon="17.916044621761">
        <ele>12.4</ele>
        <time>2013-08-17T10:51:53Z</time>
      </trkpt>
      <trkpt lat="59.474430015883" lon="17.916092398591">
        <ele>12.8</ele>
        <time>2013-08-17T10:51:54Z</time>
      </trkpt>
      <trkpt lat="59.474468488804" lon="17.916131542064">
        <ele>13.2</ele>
        <time>2013-08-17T10:51:55Z</time>
      </trkpt>
      <trkpt lat="59.474508973381" lon="17.916165488759">
        <ele>13.6</ele>
        <time>2013-08-17T10:51:56Z</time>
      </trkpt>
      <trkpt lat="59.474620871746" lon="17.91626850231">
        <ele>13.6</ele>
        <time>2013-08-17T10:51:59Z</time>
      </trkpt>
      <trkpt lat="59.474712485913" lon="17.916347627446">
        <ele>13.6</ele>
        <time>2013-08-17T10:52:01Z</time>
      </trkpt>
      <trkpt lat="59.474971486623" lon="17.916599922636">
        <ele>13.2</ele>
        <time>2013-08-17T10:52:06Z</time>
      </trkpt>
      <trkpt lat="59.475029740828" lon="17.916666977836">
        <ele>12.6</ele>
        <time>2013-08-17T10:52:07Z</time>
      </trkpt>
      <trkpt lat="59.475092102164" lon="17.916732943389">
        <ele>12.2</ele>
        <time>2013-08-17T10:52:08Z</time>
      </trkpt>
      <trkpt lat="59.475164186504" lon="17.916764543152">
        <ele>11.6</ele>
        <time>2013-08-17T10:52:09Z</time>
      </trkpt>
      <trkpt lat="59.475243144002" lon="17.916773008871">
        <ele>11.2</ele>
        <time>2013-08-17T10:52:10Z</time>
      </trkpt>
      <trkpt lat="59.475323358785" lon="17.916766554808">
        <ele>11.2</ele>
        <time>2013-08-17T10:52:11Z</time>
      </trkpt>
      <trkpt lat="59.475484291265" lon="17.916740068004">
        <ele>11.2</ele>
        <time>2013-08-17T10:52:13Z</time>
      </trkpt>
      <trkpt lat="59.475652096903" lon="17.916715676675">
        <ele>10.8</ele>
        <time>2013-08-17T10:52:15Z</time>
      </trkpt>
      <trkpt lat="59.475720577026" lon="17.916677706668">
        <ele>10.4</ele>
        <time>2013-08-17T10:52:16Z</time>
      </trkpt>
      <trkpt lat="59.475785704389" lon="17.916673096623">
        <ele>10</ele>
        <time>2013-08-17T10:52:17Z</time>
      </trkpt>
      <trkpt lat="59.475835409056" lon="17.916628002001">
        <ele>9.4</ele>
        <time>2013-08-17T10:52:18Z</time>
      </trkpt>
      <trkpt lat="59.475875558357" lon="17.916528173572">
        <ele>9</ele>
        <time>2013-08-17T10:52:19Z</time>
      </trkpt>
      <trkpt lat="59.475903050989" lon="17.916175630858">
        <ele>9</ele>
        <time>2013-08-17T10:52:22Z</time>
      </trkpt>
      <trkpt lat="59.47593230382" lon="17.915943200771">
        <ele>9</ele>
        <time>2013-08-17T10:52:24Z</time>
      </trkpt>
      <trkpt lat="59.475956527511" lon="17.915834487528">
        <ele>9</ele>
        <time>2013-08-17T10:52:25Z</time>
      </trkpt>
      <trkpt lat="59.476025091453" lon="17.915650923918">
        <ele>9</ele>
        <time>2013-08-17T10:52:27Z</time>
      </trkpt>
      <trkpt lat="59.476150987591" lon="17.915412626501">
        <ele>9</ele>
        <time>2013-08-17T10:52:30Z</time>
      </trkpt>
      <trkpt lat="59.476196501308" lon="17.915346409491">
        <ele>9</ele>
        <time>2013-08-17T10:52:31Z</time>
      </trkpt>
      <trkpt lat="59.476289624217" lon="17.915200480612">
        <ele>9</ele>
        <time>2013-08-17T10:52:33Z</time>
      </trkpt>
      <trkpt lat="59.476619368163" lon="17.914853972866">
        <ele>9</ele>
        <time>2013-08-17T10:52:39Z</time>
      </trkpt>
      <trkpt lat="59.477077690455" lon="17.914457592815">
        <ele>9</ele>
        <time>2013-08-17T10:52:46Z</time>
      </trkpt>
      <trkpt lat="59.477212471407" lon="17.914335133256">
        <ele>9</ele>
        <time>2013-08-17T10:52:48Z</time>
      </trkpt>
      <trkpt lat="59.477425036391" lon="17.914171602387">
        <ele>9</ele>
        <time>2013-08-17T10:52:51Z</time>
      </trkpt>
      <trkpt lat="59.47796575276" lon="17.913693079716">
        <ele>9</ele>
        <time>2013-08-17T10:52:59Z</time>
      </trkpt>
      <trkpt lat="59.478492219899" lon="17.913216736339">
        <ele>9</ele>
        <time>2013-08-17T10:53:07Z</time>
      </trkpt>
      <trkpt lat="59.478557179624" lon="17.91319066863">
        <ele>9</ele>
        <time>2013-08-17T10:53:08Z</time>
      </trkpt>
      <trkpt lat="59.478744934184" lon="17.913317151501">
        <ele>8.6</ele>
        <time>2013-08-17T10:53:11Z</time>
      </trkpt>
      <trkpt lat="59.478792794833" lon="17.913428379314">
        <ele>8.2</ele>
        <time>2013-08-17T10:53:12Z</time>
      </trkpt>
      <trkpt lat="59.478821377112" lon="17.913557292936">
        <ele>7.8</ele>
        <time>2013-08-17T10:53:13Z</time>
      </trkpt>
      <trkpt lat="59.478835291066" lon="17.913690648965">
        <ele>7.4</ele>
        <time>2013-08-17T10:53:14Z</time>
      </trkpt>
      <trkpt lat="59.478842918595" lon="17.913828782677">
        <ele>7</ele>
        <time>2013-08-17T10:53:15Z</time>
      </trkpt>
      <trkpt lat="59.47891206927" lon="17.914195071707">
        <ele>7</ele>
        <time>2013-08-17T10:53:18Z</time>
      </trkpt>
      <trkpt lat="59.478957163892" lon="17.914277884879">
        <ele>7</ele>
        <time>2013-08-17T10:53:19Z</time>
      </trkpt>
      <trkpt lat="59.479105104427" lon="17.914303617312">
        <ele>7</ele>
        <time>2013-08-17T10:53:21Z</time>
      </trkpt>
      <trkpt lat="59.479257571188" lon="17.914279309802">
        <ele>7</ele>
        <time>2013-08-17T10:53:23Z</time>
      </trkpt>
      <trkpt lat="59.479563929633" lon="17.9142660664">
        <ele>7</ele>
        <time>2013-08-17T10:53:27Z</time>
      </trkpt>
      <trkpt lat="59.480130965168" lon="17.914268329513">
        <ele>7</ele>
        <time>2013-08-17T10:53:34Z</time>
      </trkpt>
      <trkpt lat="59.480209838847" lon="17.914275873223">
        <ele>7</ele>
        <time>2013-08-17T10:53:35Z</time>
      </trkpt>
      <trkpt lat="59.480579396818" lon="17.914392297814">
        <ele>7</ele>
        <time>2013-08-17T10:53:40Z</time>
      </trkpt>
      <trkpt lat="59.480875780802" lon="17.914701254648">
        <ele>7</ele>
        <time>2013-08-17T10:53:45Z</time>
      </trkpt>
      <trkpt lat="59.481124471775" lon="17.914865875164">
        <ele>7.4</ele>
        <time>2013-08-17T10:53:49Z</time>
      </trkpt>
      <trkpt lat="59.481189850595" lon="17.914897558746">
        <ele>7.8</ele>
        <time>2013-08-17T10:53:50Z</time>
      </trkpt>
      <trkpt lat="59.481251876655" lon="17.914926811577">
        <ele>8.2</ele>
        <time>2013-08-17T10:53:51Z</time>
      </trkpt>
      <trkpt lat="59.481309125032" lon="17.914955477675">
        <ele>8.6</ele>
        <time>2013-08-17T10:53:52Z</time>
      </trkpt>
      <trkpt lat="59.48136377502" lon="17.914996716623">
        <ele>9</ele>
        <time>2013-08-17T10:53:53Z</time>
      </trkpt>
      <trkpt lat="59.481413731144" lon="17.915048013851">
        <ele>9</ele>
        <time>2013-08-17T10:53:54Z</time>
      </trkpt>
      <trkpt lat="59.481457568481" lon="17.915124624417">
        <ele>9</ele>
        <time>2013-08-17T10:53:55Z</time>
      </trkpt>
      <trkpt lat="59.481591511243" lon="17.915513209301">
        <ele>9</ele>
        <time>2013-08-17T10:53:59Z</time>
      </trkpt>
      <trkpt lat="59.481883955734" lon="17.916216869806">
        <ele>9</ele>
        <time>2013-08-17T10:54:07Z</time>
      </trkpt>
      <trkpt lat="59.482063160756" lon="17.916198848721">
        <ele>9</ele>
        <time>2013-08-17T10:54:10Z</time>
      </trkpt>
      <trkpt lat="59.482158546778" lon="17.916121567603">
        <ele>9</ele>
        <time>2013-08-17T10:54:12Z</time>
      </trkpt>
      <trkpt lat="59.482243623063" lon="17.916060128276">
        <ele>9</ele>
        <time>2013-08-17T10:54:14Z</time>
      </trkpt>
      <trkpt lat="59.482415871108" lon="17.915932052844">
        <ele>9.4</ele>
        <time>2013-08-17T10:54:17Z</time>
      </trkpt>
      <trkpt lat="59.482458032065" lon="17.915907745334">
        <ele>9.8</ele>
        <time>2013-08-17T10:54:20Z</time>
      </trkpt>
      <trkpt lat="59.482498600461" lon="17.915879665969">
        <ele>10.2</ele>
        <time>2013-08-17T10:54:21Z</time>
      </trkpt>
      <trkpt lat="59.482542940712" lon="17.915848317663">
        <ele>10.8</ele>
        <time>2013-08-17T10:54:22Z</time>
      </trkpt>
      <trkpt lat="59.482586526592" lon="17.915814790063">
        <ele>11.2</ele>
        <time>2013-08-17T10:54:23Z</time>
      </trkpt>
      <trkpt lat="59.482827590036" lon="17.915562913968">
        <ele>11.6</ele>
        <time>2013-08-17T10:54:29Z</time>
      </trkpt>
      <trkpt lat="59.482868158432" lon="17.915512119654">
        <ele>12</ele>
        <time>2013-08-17T10:54:30Z</time>
      </trkpt>
      <trkpt lat="59.482905290249" lon="17.915465683928">
        <ele>12.4</ele>
        <time>2013-08-17T10:54:31Z</time>
      </trkpt>
      <trkpt lat="59.482941164781" lon="17.915411955949">
        <ele>12.8</ele>
        <time>2013-08-17T10:54:32Z</time>
      </trkpt>
      <trkpt lat="59.482974860019" lon="17.915355964857">
        <ele>13.2</ele>
        <time>2013-08-17T10:54:33Z</time>
      </trkpt>
      <trkpt lat="59.48309044642" lon="17.91521154472">
        <ele>13.2</ele>
        <time>2013-08-17T10:54:36Z</time>
      </trkpt>
      <trkpt lat="59.483350452958" lon="17.914874089426">
        <ele>13.2</ele>
        <time>2013-08-17T10:54:41Z</time>
      </trkpt>
      <trkpt lat="59.483596377904" lon="17.914427250337">
        <ele>13.2</ele>
        <time>2013-08-17T10:54:45Z</time>
      </trkpt>
      <trkpt lat="59.483681621827" lon="17.914284338942">
        <ele>12.8</ele>
        <time>2013-08-17T10:54:46Z</time>
      </trkpt>
      <trkpt lat="59.483762339524" lon="17.914147546334">
        <ele>12.4</ele>
        <time>2013-08-17T10:54:47Z</time>
      </trkpt>
      <trkpt lat="59.483840961746" lon="17.914017040151">
        <ele>12</ele>
        <time>2013-08-17T10:54:48Z</time>
      </trkpt>
      <trkpt lat="59.48392612185" lon="17.913917966093">
        <ele>11.6</ele>
        <time>2013-08-17T10:54:49Z</time>
      </trkpt>
      <trkpt lat="59.484010192307" lon="17.913842864269">
        <ele>11.2</ele>
        <time>2013-08-17T10:54:50Z</time>
      </trkpt>
      <trkpt lat="59.484235246322" lon="17.91362401286">
        <ele>11.2</ele>
        <time>2013-08-17T10:54:53Z</time>
      </trkpt>
      <trkpt lat="59.484404644521" lon="17.913373226412">
        <ele>11.2</ele>
        <time>2013-08-17T10:54:56Z</time>
      </trkpt>
      <trkpt lat="59.484453594817" lon="17.913294436552">
        <ele>11.2</ele>
        <time>2013-08-17T10:54:57Z</time>
      </trkpt>
      <trkpt lat="59.484526433528" lon="17.913132162968">
        <ele>11.2</ele>
        <time>2013-08-17T10:54:59Z</time>
      </trkpt>
      <trkpt lat="59.484587118484" lon="17.912967961547">
        <ele>11.2</ele>
        <time>2013-08-17T10:55:01Z</time>
      </trkpt>
      <trkpt lat="59.484616874229" lon="17.912903001822">
        <ele>11.2</ele>
        <time>2013-08-17T10:55:02Z</time>
      </trkpt>
      <trkpt lat="59.484741010168" lon="17.912688006087">
        <ele>11.2</ele>
        <time>2013-08-17T10:55:06Z</time>
      </trkpt>
      <trkpt lat="59.484783254944" lon="17.912657915066">
        <ele>11.2</ele>
        <time>2013-08-17T10:55:07Z</time>
      </trkpt>
      <trkpt lat="59.484923819407" lon="17.91261986124">
        <ele>11.2</ele>
        <time>2013-08-17T10:55:10Z</time>
      </trkpt>
      <trkpt lat="59.484968075839" lon="17.912613490996">
        <ele>11.2</ele>
        <time>2013-08-17T10:55:11Z</time>
      </trkpt>
      <trkpt lat="59.485288096781" lon="17.912616592299">
        <ele>11.2</ele>
        <time>2013-08-17T10:55:17Z</time>
      </trkpt>
      <trkpt lat="59.485547600405" lon="17.912533192394">
        <ele>11.6</ele>
        <time>2013-08-17T10:55:22Z</time>
      </trkpt>
      <trkpt lat="59.485601244565" lon="17.91250922016">
        <ele>12.4</ele>
        <time>2013-08-17T10:55:23Z</time>
      </trkpt>
      <trkpt lat="59.485657068019" lon="17.912477201302">
        <ele>12.8</ele>
        <time>2013-08-17T10:55:24Z</time>
      </trkpt>
      <trkpt lat="59.485710712179" lon="17.912446439729">
        <ele>13.2</ele>
        <time>2013-08-17T10:55:25Z</time>
      </trkpt>
      <trkpt lat="59.486057219925" lon="17.912235886401">
        <ele>13.2</ele>
        <time>2013-08-17T10:55:31Z</time>
      </trkpt>
      <trkpt lat="59.486458461478" lon="17.911943358091">
        <ele>13.2</ele>
        <time>2013-08-17T10:55:38Z</time>
      </trkpt>
      <trkpt lat="59.486764065552" lon="17.911767757286">
        <ele>13.2</ele>
        <time>2013-08-17T10:55:44Z</time>
      </trkpt>
      <trkpt lat="59.486811255649" lon="17.911749736201">
        <ele>13.2</ele>
        <time>2013-08-17T10:55:45Z</time>
      </trkpt>
      <trkpt lat="59.487037986044" lon="17.911637167284">
        <ele>13.2</ele>
        <time>2013-08-17T10:55:50Z</time>
      </trkpt>
      <trkpt lat="59.487066987418" lon="17.911625097348">
        <ele>13.6</ele>
        <time>2013-08-17T10:55:51Z</time>
      </trkpt>
      <trkpt lat="59.487098838638" lon="17.911605316064">
        <ele>14</ele>
        <time>2013-08-17T10:55:52Z</time>
      </trkpt>
      <trkpt lat="59.487137479197" lon="17.911571453188">
        <ele>14.4</ele>
        <time>2013-08-17T10:55:53Z</time>
      </trkpt>
      <trkpt lat="59.487179053421" lon="17.911540356339">
        <ele>15</ele>
        <time>2013-08-17T10:55:54Z</time>
      </trkpt>
      <trkpt lat="59.487224902414" lon="17.911506912558">
        <ele>15.4</ele>
        <time>2013-08-17T10:55:55Z</time>
      </trkpt>
      <trkpt lat="59.487347529611" lon="17.911402725541">
        <ele>15.4</ele>
        <time>2013-08-17T10:55:58Z</time>
      </trkpt>
      <trkpt lat="59.487382565953" lon="17.911361151317">
        <ele>15.8</ele>
        <time>2013-08-17T10:55:59Z</time>
      </trkpt>
      <trkpt lat="59.487417602295" lon="17.911312201021">
        <ele>16.2</ele>
        <time>2013-08-17T10:56:00Z</time>
      </trkpt>
      <trkpt lat="59.48745406356" lon="17.911262077259">
        <ele>16.6</ele>
        <time>2013-08-17T10:56:01Z</time>
      </trkpt>
      <trkpt lat="59.487490692463" lon="17.911206002348">
        <ele>17</ele>
        <time>2013-08-17T10:56:02Z</time>
      </trkpt>
      <trkpt lat="59.48752950066" lon="17.911149173066">
        <ele>17.4</ele>
        <time>2013-08-17T10:56:03Z</time>
      </trkpt>
      <trkpt lat="59.487722200541" lon="17.910901152645">
        <ele>17.4</ele>
        <time>2013-08-17T10:56:08Z</time>
      </trkpt>
      <trkpt lat="59.488026212054" lon="17.910512064847">
        <ele>17.4</ele>
        <time>2013-08-17T10:56:15Z</time>
      </trkpt>
      <trkpt lat="59.488330223567" lon="17.910270917584">
        <ele>17.4</ele>
        <time>2013-08-17T10:56:21Z</time>
      </trkpt>
      <trkpt lat="59.48869374657" lon="17.910018538575">
        <ele>17.8</ele>
        <time>2013-08-17T10:56:27Z</time>
      </trkpt>
      <trkpt lat="59.488753844793" lon="17.90997369541">
        <ele>18.2</ele>
        <time>2013-08-17T10:56:28Z</time>
      </trkpt>
      <trkpt lat="59.488811847541" lon="17.909924996571">
        <ele>18.6</ele>
        <time>2013-08-17T10:56:29Z</time>
      </trkpt>
      <trkpt lat="59.488868760642" lon="17.909879650492">
        <ele>19</ele>
        <time>2013-08-17T10:56:30Z</time>
      </trkpt>
      <trkpt lat="59.488920979879" lon="17.909829023816">
        <ele>19.4</ele>
        <time>2013-08-17T10:56:31Z</time>
      </trkpt>
      <trkpt lat="59.489140585659" lon="17.909603131611">
        <ele>19.4</ele>
        <time>2013-08-17T10:56:35Z</time>
      </trkpt>
      <trkpt lat="59.489606870756" lon="17.909116562316">
        <ele>19.4</ele>
        <time>2013-08-17T10:56:44Z</time>
      </trkpt>
      <trkpt lat="59.490009621051" lon="17.908824201644">
        <ele>19.4</ele>
        <time>2013-08-17T10:56:52Z</time>
      </trkpt>
      <trkpt lat="59.490213636497" lon="17.90866192806">
        <ele>19.8</ele>
        <time>2013-08-17T10:56:56Z</time>
      </trkpt>
      <trkpt lat="59.490262586793" lon="17.90861163666">
        <ele>20.4</ele>
        <time>2013-08-17T10:56:57Z</time>
      </trkpt>
      <trkpt lat="59.49031145327" lon="17.908566542038">
        <ele>20.8</ele>
        <time>2013-08-17T10:56:58Z</time>
      </trkpt>
      <trkpt lat="59.490357805177" lon="17.908518765208">
        <ele>21.2</ele>
        <time>2013-08-17T10:56:59Z</time>
      </trkpt>
      <trkpt lat="59.490404659998" lon="17.908471575111">
        <ele>21.6</ele>
        <time>2013-08-17T10:57:00Z</time>
      </trkpt>
      <trkpt lat="59.49073390103" lon="17.908157840594">
        <ele>21.6</ele>
        <time>2013-08-17T10:57:07Z</time>
      </trkpt>
      <trkpt lat="59.490783689516" lon="17.908132778713">
        <ele>21.6</ele>
        <time>2013-08-17T10:57:08Z</time>
      </trkpt>
      <trkpt lat="59.490831466346" lon="17.908111488687">
        <ele>22</ele>
        <time>2013-08-17T10:57:09Z</time>
      </trkpt>
      <trkpt lat="59.49088058428" lon="17.90808944429">
        <ele>22.4</ele>
        <time>2013-08-17T10:57:10Z</time>
      </trkpt>
      <trkpt lat="59.490929283119" lon="17.908064969142">
        <ele>22.8</ele>
        <time>2013-08-17T10:57:11Z</time>
      </trkpt>
      <trkpt lat="59.490983346374" lon="17.908047283333">
        <ele>23.2</ele>
        <time>2013-08-17T10:57:12Z</time>
      </trkpt>
      <trkpt lat="59.491038415457" lon="17.908031441542">
        <ele>23.6</ele>
        <time>2013-08-17T10:57:13Z</time>
      </trkpt>
      <trkpt lat="59.491155426781" lon="17.908023981651">
        <ele>23.6</ele>
        <time>2013-08-17T10:57:15Z</time>
      </trkpt>
      <trkpt lat="59.491431526567" lon="17.907970253672">
        <ele>24</ele>
        <time>2013-08-17T10:57:20Z</time>
      </trkpt>
      <trkpt lat="59.491481147415" lon="17.907964721618">
        <ele>24.4</ele>
        <time>2013-08-17T10:57:21Z</time>
      </trkpt>
      <trkpt lat="59.491529678616" lon="17.907955669166">
        <ele>24.8</ele>
        <time>2013-08-17T10:57:22Z</time>
      </trkpt>
      <trkpt lat="59.491581562577" lon="17.907952986958">
        <ele>25.2</ele>
        <time>2013-08-17T10:57:23Z</time>
      </trkpt>
      <trkpt lat="59.491634368547" lon="17.907936809891">
        <ele>25.8</ele>
        <time>2013-08-17T10:57:24Z</time>
      </trkpt>
      <trkpt lat="59.491937458051" lon="17.907831030313">
        <ele>25.8</ele>
        <time>2013-08-17T10:57:29Z</time>
      </trkpt>
      <trkpt lat="59.49213870747" lon="17.9078539129">
        <ele>25.8</ele>
        <time>2013-08-17T10:57:32Z</time>
      </trkpt>
      <trkpt lat="59.492269968024" lon="17.907918034435">
        <ele>25.8</ele>
        <time>2013-08-17T10:57:34Z</time>
      </trkpt>
      <trkpt lat="59.492320846157" lon="17.907963799609">
        <ele>25.8</ele>
        <time>2013-08-17T10:57:35Z</time>
      </trkpt>
      <trkpt lat="59.492457387308" lon="17.908064801504">
        <ele>25.8</ele>
        <time>2013-08-17T10:57:38Z</time>
      </trkpt>
      <trkpt lat="59.492805571434" lon="17.908422792453">
        <ele>25.8</ele>
        <time>2013-08-17T10:57:45Z</time>
      </trkpt>
      <trkpt lat="59.493185187685" lon="17.908916234906">
        <ele>25.8</ele>
        <time>2013-08-17T10:57:51Z</time>
      </trkpt>
      <trkpt lat="59.493600678468" lon="17.90942468096">
        <ele>25.8</ele>
        <time>2013-08-17T10:57:57Z</time>
      </trkpt>
      <trkpt lat="59.494028490644" lon="17.909841680485">
        <ele>25.8</ele>
        <time>2013-08-17T10:58:03Z</time>
      </trkpt>
      <trkpt lat="59.494106274676" lon="17.909873699343">
        <ele>25.8</ele>
        <time>2013-08-17T10:58:04Z</time>
      </trkpt>
      <trkpt lat="59.494328311207" lon="17.909917201404">
        <ele>25.8</ele>
        <time>2013-08-17T10:58:07Z</time>
      </trkpt>
      <trkpt lat="59.494404670316" lon="17.909920135069">
        <ele>25.8</ele>
        <time>2013-08-17T10:58:08Z</time>
      </trkpt>
      <trkpt lat="59.494787220232" lon="17.909847547815">
        <ele>25.8</ele>
        <time>2013-08-17T10:58:13Z</time>
      </trkpt>
      <trkpt lat="59.495224336317" lon="17.909584523793">
        <ele>25.8</ele>
        <time>2013-08-17T10:58:19Z</time>
      </trkpt>
      <trkpt lat="59.49566916375" lon="17.909373383732">
        <ele>25.8</ele>
        <time>2013-08-17T10:58:25Z</time>
      </trkpt>
      <trkpt lat="59.496085408904" lon="17.909304735971">
        <ele>25.8</ele>
        <time>2013-08-17T10:58:31Z</time>
      </trkpt>
      <trkpt lat="59.496675578483" lon="17.909210439596">
        <ele>25.8</ele>
        <time>2013-08-17T10:58:40Z</time>
      </trkpt>
      <trkpt lat="59.496782531527" lon="17.909201387144">
        <ele>25.8</ele>
        <time>2013-08-17T10:58:42Z</time>
      </trkpt>
      <trkpt lat="59.496926197293" lon="17.909204823723">
        <ele>25.8</ele>
        <time>2013-08-17T10:58:45Z</time>
      </trkpt>
      <trkpt lat="59.497145383978" lon="17.909260563358">
        <ele>25.8</ele>
        <time>2013-08-17T10:58:50Z</time>
      </trkpt>
      <trkpt lat="59.497186371469" lon="17.909291157293">
        <ele>26.2</ele>
        <time>2013-08-17T10:58:51Z</time>
      </trkpt>
      <trkpt lat="59.497227107503" lon="17.909319655753">
        <ele>26.6</ele>
        <time>2013-08-17T10:58:52Z</time>
      </trkpt>
      <trkpt lat="59.497270022831" lon="17.909354440638">
        <ele>27</ele>
        <time>2013-08-17T10:58:53Z</time>
      </trkpt>
      <trkpt lat="59.497314027806" lon="17.909387297686">
        <ele>27.4</ele>
        <time>2013-08-17T10:58:54Z</time>
      </trkpt>
      <trkpt lat="59.497357948962" lon="17.909408336255">
        <ele>27.8</ele>
        <time>2013-08-17T10:58:55Z</time>
      </trkpt>
      <trkpt lat="59.497443025247" lon="17.909470278496">
        <ele>27.8</ele>
        <time>2013-08-17T10:58:57Z</time>
      </trkpt>
      <trkpt lat="59.497581242778" lon="17.909601706688">
        <ele>28.2</ele>
        <time>2013-08-17T10:59:00Z</time>
      </trkpt>
      <trkpt lat="59.497624577201" lon="17.909651243717">
        <ele>28.6</ele>
        <time>2013-08-17T10:59:01Z</time>
      </trkpt>
      <trkpt lat="59.49767243785" lon="17.909697008891">
        <ele>29</ele>
        <time>2013-08-17T10:59:02Z</time>
      </trkpt>
      <trkpt lat="59.497721471965" lon="17.90974486954">
        <ele>29.4</ele>
        <time>2013-08-17T10:59:03Z</time>
      </trkpt>
      <trkpt lat="59.497770422261" lon="17.909790215619">
        <ele>29.8</ele>
        <time>2013-08-17T10:59:04Z</time>
      </trkpt>
      <trkpt lat="59.497870502147" lon="17.909858947199">
        <ele>29.8</ele>
        <time>2013-08-17T10:59:06Z</time>
      </trkpt>
      <trkpt lat="59.498062112381" lon="17.909852409317">
        <ele>29.8</ele>
        <time>2013-08-17T10:59:09Z</time>
      </trkpt>
      <trkpt lat="59.498121288595" lon="17.909838579182">
        <ele>29.8</ele>
        <time>2013-08-17T10:59:10Z</time>
      </trkpt>
      <trkpt lat="59.498324382032" lon="17.909819971364">
        <ele>29.8</ele>
        <time>2013-08-17T10:59:14Z</time>
      </trkpt>
      <trkpt lat="59.498378696744" lon="17.909797843148">
        <ele>29.8</ele>
        <time>2013-08-17T10:59:15Z</time>
      </trkpt>
      <trkpt lat="59.498628645002" lon="17.909744115169">
        <ele>29.8</ele>
        <time>2013-08-17T10:59:20Z</time>
      </trkpt>
      <trkpt lat="59.498764347963" lon="17.909758364399">
        <ele>29.8</ele>
        <time>2013-08-17T10:59:23Z</time>
      </trkpt>
      <trkpt lat="59.498882532753" lon="17.90970798918">
        <ele>30.2</ele>
        <time>2013-08-17T10:59:25Z</time>
      </trkpt>
      <trkpt lat="59.498949504134" lon="17.909689381362">
        <ele>30.6</ele>
        <time>2013-08-17T10:59:26Z</time>
      </trkpt>
      <trkpt lat="59.499008009796" lon="17.909694410502">
        <ele>31</ele>
        <time>2013-08-17T10:59:27Z</time>
      </trkpt>
      <trkpt lat="59.499059558481" lon="17.909713688872">
        <ele>31.4</ele>
        <time>2013-08-17T10:59:28Z</time>
      </trkpt>
      <trkpt lat="59.499113035003" lon="17.909747048834">
        <ele>31.8</ele>
        <time>2013-08-17T10:59:29Z</time>
      </trkpt>
      <trkpt lat="59.499154525408" lon="17.909788623058">
        <ele>31.8</ele>
        <time>2013-08-17T10:59:30Z</time>
      </trkpt>
      <trkpt lat="59.499199284754" lon="17.909830532558">
        <ele>31.8</ele>
        <time>2013-08-17T10:59:31Z</time>
      </trkpt>
      <trkpt lat="59.499286624152" lon="17.909909825332">
        <ele>32.2</ele>
        <time>2013-08-17T10:59:33Z</time>
      </trkpt>
      <trkpt lat="59.499326102901" lon="17.909946538054">
        <ele>32.6</ele>
        <time>2013-08-17T10:59:34Z</time>
      </trkpt>
      <trkpt lat="59.499372790084" lon="17.909978473093">
        <ele>33</ele>
        <time>2013-08-17T10:59:35Z</time>
      </trkpt>
      <trkpt lat="59.499411263005" lon="17.910004289345">
        <ele>33.4</ele>
        <time>2013-08-17T10:59:36Z</time>
      </trkpt>
      <trkpt lat="59.49945778255" lon="17.91002063405">
        <ele>33.8</ele>
        <time>2013-08-17T10:59:37Z</time>
      </trkpt>
      <trkpt lat="59.499503715362" lon="17.910030021778">
        <ele>33.8</ele>
        <time>2013-08-17T10:59:38Z</time>
      </trkpt>
      <trkpt lat="59.49966146272" lon="17.910095652055">
        <ele>33.8</ele>
        <time>2013-08-17T10:59:41Z</time>
      </trkpt>
      <trkpt lat="59.499833040213" lon="17.910214758854">
        <ele>33.8</ele>
        <time>2013-08-17T10:59:44Z</time>
      </trkpt>
      <trkpt lat="59.500006797" lon="17.910366387425">
        <ele>33.8</ele>
        <time>2013-08-17T10:59:47Z</time>
      </trkpt>
      <trkpt lat="59.500354059117" lon="17.910707782212">
        <ele>33.8</ele>
        <time>2013-08-17T10:59:53Z</time>
      </trkpt>
      <trkpt lat="59.500591099249" lon="17.910965525637">
        <ele>33.8</ele>
        <time>2013-08-17T10:59:57Z</time>
      </trkpt>
      <trkpt lat="59.500655053146" lon="17.910995784296">
        <ele>33.8</ele>
        <time>2013-08-17T10:59:58Z</time>
      </trkpt>
      <trkpt lat="59.500972056604" lon="17.910971476786">
        <ele>33.8</ele>
        <time>2013-08-17T11:00:02Z</time>
      </trkpt>
      <trkpt lat="59.501221082853" lon="17.910922358852">
        <ele>33.8</ele>
        <time>2013-08-17T11:00:05Z</time>
      </trkpt>
      <trkpt lat="59.501294340659" lon="17.910946917819">
        <ele>33.4</ele>
        <time>2013-08-17T11:00:06Z</time>
      </trkpt>
      <trkpt lat="59.501353600692" lon="17.911004920567">
        <ele>33</ele>
        <time>2013-08-17T11:00:07Z</time>
      </trkpt>
      <trkpt lat="59.501410094698" lon="17.911047165343">
        <ele>32.6</ele>
        <time>2013-08-17T11:00:08Z</time>
      </trkpt>
      <trkpt lat="59.501480754115" lon="17.911110113412">
        <ele>32.2</ele>
        <time>2013-08-17T11:00:09Z</time>
      </trkpt>
      <trkpt lat="59.501548815143" lon="17.911184628503">
        <ele>31.8</ele>
        <time>2013-08-17T11:00:10Z</time>
      </trkpt>
      <trkpt lat="59.501680159516" lon="17.911358888204">
        <ele>31.8</ele>
        <time>2013-08-17T11:00:12Z</time>
      </trkpt>
      <trkpt lat="59.501961288442" lon="17.911689218883">
        <ele>31.8</ele>
        <time>2013-08-17T11:00:17Z</time>
      </trkpt>
      <trkpt lat="59.502154491237" lon="17.911648985763">
        <ele>31.8</ele>
        <time>2013-08-17T11:00:20Z</time>
      </trkpt>
      <trkpt lat="59.502397985432" lon="17.911343130232">
        <ele>31.8</ele>
        <time>2013-08-17T11:00:24Z</time>
      </trkpt>
      <trkpt lat="59.502449450298" lon="17.91123852412">
        <ele>31.2</ele>
        <time>2013-08-17T11:00:25Z</time>
      </trkpt>
      <trkpt lat="59.502495466929" lon="17.911127966859">
        <ele>30.8</ele>
        <time>2013-08-17T11:00:26Z</time>
      </trkpt>
      <trkpt lat="59.502526647597" lon="17.911024198937">
        <ele>30.2</ele>
        <time>2013-08-17T11:00:27Z</time>
      </trkpt>
      <trkpt lat="59.502547937623" lon="17.910939038833">
        <ele>29.8</ele>
        <time>2013-08-17T11:00:28Z</time>
      </trkpt>
      <trkpt lat="59.502570149658" lon="17.910885729949">
        <ele>29.2</ele>
        <time>2013-08-17T11:00:29Z</time>
      </trkpt>
      <trkpt lat="59.502601581783" lon="17.91085547129">
        <ele>28.6</ele>
        <time>2013-08-17T11:00:30Z</time>
      </trkpt>
      <trkpt lat="59.502630247881" lon="17.910842395526">
        <ele>28.2</ele>
        <time>2013-08-17T11:00:31Z</time>
      </trkpt>
      <trkpt lat="59.502681293652" lon="17.910812975057">
        <ele>27.6</ele>
        <time>2013-08-17T11:00:32Z</time>
      </trkpt>
      <trkpt lat="59.502718090193" lon="17.910746171314">
        <ele>27</ele>
        <time>2013-08-17T11:00:33Z</time>
      </trkpt>
      <trkpt lat="59.502811213102" lon="17.910711386429">
        <ele>27</ele>
        <time>2013-08-17T11:00:35Z</time>
      </trkpt>
      <trkpt lat="59.502993519427" lon="17.910836779653">
        <ele>27</ele>
        <time>2013-08-17T11:00:39Z</time>
      </trkpt>
      <trkpt lat="59.503102735584" lon="17.910907941984">
        <ele>27</ele>
        <time>2013-08-17T11:00:41Z</time>
      </trkpt>
      <trkpt lat="59.503322173726" lon="17.911005255843">
        <ele>27</ele>
        <time>2013-08-17T11:00:45Z</time>
      </trkpt>
      <trkpt lat="59.503481262188" lon="17.911052110664">
        <ele>27</ele>
        <time>2013-08-17T11:00:48Z</time>
      </trkpt>
      <trkpt lat="59.503544042619" lon="17.910931076028">
        <ele>27</ele>
        <time>2013-08-17T11:00:50Z</time>
      </trkpt>
      <trkpt lat="59.503555442003" lon="17.910832672522">
        <ele>26.6</ele>
        <time>2013-08-17T11:00:51Z</time>
      </trkpt>
      <trkpt lat="59.50355904622" lon="17.910722115261">
        <ele>26.2</ele>
        <time>2013-08-17T11:00:52Z</time>
      </trkpt>
      <trkpt lat="59.503575893839" lon="17.910599907159">
        <ele>25.8</ele>
        <time>2013-08-17T11:00:53Z</time>
      </trkpt>
      <trkpt lat="59.503599195521" lon="17.910474849211">
        <ele>25.4</ele>
        <time>2013-08-17T11:00:54Z</time>
      </trkpt>
      <trkpt lat="59.503627693981" lon="17.910349455987">
        <ele>25</ele>
        <time>2013-08-17T11:00:55Z</time>
      </trkpt>
      <trkpt lat="59.503659126106" lon="17.910219871813">
        <ele>25</ele>
        <time>2013-08-17T11:00:56Z</time>
      </trkpt>
      <trkpt lat="59.503689133308" lon="17.91009355658">
        <ele>25</ele>
        <time>2013-08-17T11:00:57Z</time>
      </trkpt>
      <trkpt lat="59.503950732407" lon="17.909205745732">
        <ele>24.6</ele>
        <time>2013-08-17T11:01:04Z</time>
      </trkpt>
      <trkpt lat="59.503983086541" lon="17.909090494607">
        <ele>24.2</ele>
        <time>2013-08-17T11:01:05Z</time>
      </trkpt>
      <trkpt lat="59.504017703788" lon="17.908976668405">
        <ele>23.8</ele>
        <time>2013-08-17T11:01:06Z</time>
      </trkpt>
      <trkpt lat="59.504050812293" lon="17.908852364828">
        <ele>23.4</ele>
        <time>2013-08-17T11:01:07Z</time>
      </trkpt>
      <trkpt lat="59.504088279386" lon="17.908730408183">
        <ele>23</ele>
        <time>2013-08-17T11:01:08Z</time>
      </trkpt>
      <trkpt lat="59.504196741172" lon="17.908348361181">
        <ele>23</ele>
        <time>2013-08-17T11:01:11Z</time>
      </trkpt>
      <trkpt lat="59.504439732453" lon="17.907486031309">
        <ele>22.6</ele>
        <time>2013-08-17T11:01:18Z</time>
      </trkpt>
      <trkpt lat="59.504472421863" lon="17.907357536782">
        <ele>22</ele>
        <time>2013-08-17T11:01:19Z</time>
      </trkpt>
      <trkpt lat="59.504503770169" lon="17.907233065567">
        <ele>21.6</ele>
        <time>2013-08-17T11:01:20Z</time>
      </trkpt>
      <trkpt lat="59.504533358276" lon="17.907111611836">
        <ele>21.2</ele>
        <time>2013-08-17T11:01:21Z</time>
      </trkpt>
      <trkpt lat="59.504561186184" lon="17.906990158105">
        <ele>20.8</ele>
        <time>2013-08-17T11:01:22Z</time>
      </trkpt>
      <trkpt lat="59.504612315774" lon="17.906702575116">
        <ele>20.8</ele>
        <time>2013-08-17T11:01:25Z</time>
      </trkpt>
      <trkpt lat="59.504636539465" lon="17.90665278663">
        <ele>20.8</ele>
        <time>2013-08-17T11:01:27Z</time>
      </trkpt>
      <trkpt lat="59.504656991301" lon="17.90667457957">
        <ele>20.4</ele>
        <time>2013-08-17T11:01:28Z</time>
      </trkpt>
      <trkpt lat="59.50467886806" lon="17.906730570662">
        <ele>20</ele>
        <time>2013-08-17T11:01:29Z</time>
      </trkpt>
      <trkpt lat="59.504679957707" lon="17.90681120454">
        <ele>19.4</ele>
        <time>2013-08-17T11:01:30Z</time>
      </trkpt>
      <trkpt lat="59.504686495589" lon="17.906891167866">
        <ele>19</ele>
        <time>2013-08-17T11:01:31Z</time>
      </trkpt>
      <trkpt lat="59.504710970737" lon="17.906974316314">
        <ele>18.6</ele>
        <time>2013-08-17T11:01:32Z</time>
      </trkpt>
      <trkpt lat="59.504738044274" lon="17.907045981559">
        <ele>18.2</ele>
        <time>2013-08-17T11:01:33Z</time>
      </trkpt>
      <trkpt lat="59.504774170263" lon="17.907109264904">
        <ele>17.6</ele>
        <time>2013-08-17T11:01:34Z</time>
      </trkpt>
      <trkpt lat="59.504807027311" lon="17.907185707832">
        <ele>17.2</ele>
        <time>2013-08-17T11:01:35Z</time>
      </trkpt>
      <trkpt lat="59.504840051997" lon="17.907259803828">
        <ele>16.8</ele>
        <time>2013-08-17T11:01:36Z</time>
      </trkpt>
      <trkpt lat="59.504886906818" lon="17.907330630883">
        <ele>16.2</ele>
        <time>2013-08-17T11:01:37Z</time>
      </trkpt>
      <trkpt lat="59.505000062468" lon="17.907377485704">
        <ele>16.2</ele>
        <time>2013-08-17T11:01:39Z</time>
      </trkpt>
      <trkpt lat="59.505101986372" lon="17.907353429651">
        <ele>16.2</ele>
        <time>2013-08-17T11:01:41Z</time>
      </trkpt>
      <trkpt lat="59.505198462041" lon="17.907358207334">
        <ele>16.2</ele>
        <time>2013-08-17T11:01:43Z</time>
      </trkpt>
      <trkpt lat="59.505248166708" lon="17.907361811551">
        <ele>16.8</ele>
        <time>2013-08-17T11:01:44Z</time>
      </trkpt>
      <trkpt lat="59.505296446452" lon="17.907366337777">
        <ele>17.2</ele>
        <time>2013-08-17T11:01:45Z</time>
      </trkpt>
      <trkpt lat="59.505345480567" lon="17.907401877033">
        <ele>17.6</ele>
        <time>2013-08-17T11:01:46Z</time>
      </trkpt>
      <trkpt lat="59.505391413379" lon="17.907448899492">
        <ele>18</ele>
        <time>2013-08-17T11:01:47Z</time>
      </trkpt>
      <trkpt lat="59.505436759458" lon="17.907492485372">
        <ele>18.6</ele>
        <time>2013-08-17T11:01:48Z</time>
      </trkpt>
      <trkpt lat="59.505473975094" lon="17.907576807286">
        <ele>18.6</ele>
        <time>2013-08-17T11:01:49Z</time>
      </trkpt>
      <trkpt lat="59.505574809351" lon="17.907801693663">
        <ele>18.6</ele>
        <time>2013-08-17T11:01:52Z</time>
      </trkpt>
      <trkpt lat="59.505842862513" lon="17.908299997618">
        <ele>18.6</ele>
        <time>2013-08-17T11:01:59Z</time>
      </trkpt>
      <trkpt lat="59.505887957135" lon="17.908362526592">
        <ele>19</ele>
        <time>2013-08-17T11:02:00Z</time>
      </trkpt>
      <trkpt lat="59.505932465024" lon="17.908420445521">
        <ele>19.4</ele>
        <time>2013-08-17T11:02:01Z</time>
      </trkpt>
      <trkpt lat="59.505973452515" lon="17.908479286459">
        <ele>19.8</ele>
        <time>2013-08-17T11:02:02Z</time>
      </trkpt>
      <trkpt lat="59.506016954576" lon="17.908535529008">
        <ele>20.2</ele>
        <time>2013-08-17T11:02:03Z</time>
      </trkpt>
      <trkpt lat="59.506057522972" lon="17.90858984372">
        <ele>20.6</ele>
        <time>2013-08-17T11:02:04Z</time>
      </trkpt>
      <trkpt lat="59.506098510463" lon="17.908647762649">
        <ele>20.6</ele>
        <time>2013-08-17T11:02:05Z</time>
      </trkpt>
      <trkpt lat="59.506276709657" lon="17.908931406145">
        <ele>21</ele>
        <time>2013-08-17T11:02:10Z</time>
      </trkpt>
      <trkpt lat="59.506312416551" lon="17.908985972314">
        <ele>21.4</ele>
        <time>2013-08-17T11:02:11Z</time>
      </trkpt>
      <trkpt lat="59.506353404042" lon="17.909043891243">
        <ele>21.8</ele>
        <time>2013-08-17T11:02:12Z</time>
      </trkpt>
      <trkpt lat="59.506391793144" lon="17.909096361937">
        <ele>22.2</ele>
        <time>2013-08-17T11:02:13Z</time>
      </trkpt>
      <trkpt lat="59.506428924961" lon="17.909148413536">
        <ele>22.6</ele>
        <time>2013-08-17T11:02:14Z</time>
      </trkpt>
      <trkpt lat="59.506497237446" lon="17.909275566959">
        <ele>22.6</ele>
        <time>2013-08-17T11:02:16Z</time>
      </trkpt>
      <trkpt lat="59.506564963198" lon="17.909374473379">
        <ele>23</ele>
        <time>2013-08-17T11:02:18Z</time>
      </trkpt>
      <trkpt lat="59.50660419049" lon="17.909423758951">
        <ele>23.4</ele>
        <time>2013-08-17T11:02:19Z</time>
      </trkpt>
      <trkpt lat="59.506653895157" lon="17.909478073663">
        <ele>23.8</ele>
        <time>2013-08-17T11:02:20Z</time>
      </trkpt>
      <trkpt lat="59.506691194612" lon="17.909535070583">
        <ele>24.2</ele>
        <time>2013-08-17T11:02:21Z</time>
      </trkpt>
      <trkpt lat="59.506735702501" lon="17.909599108299">
        <ele>24.6</ele>
        <time>2013-08-17T11:02:22Z</time>
      </trkpt>
      <trkpt lat="59.506800075493" lon="17.909740510952">
        <ele>24.6</ele>
        <time>2013-08-17T11:02:24Z</time>
      </trkpt>
      <trkpt lat="59.506847936142" lon="17.909993644332">
        <ele>24.6</ele>
        <time>2013-08-17T11:02:27Z</time>
      </trkpt>
      <trkpt lat="59.507006689328" lon="17.910232528482">
        <ele>24.6</ele>
        <time>2013-08-17T11:02:31Z</time>
      </trkpt>
      <trkpt lat="59.507268958979" lon="17.910654221871">
        <ele>24.6</ele>
        <time>2013-08-17T11:02:37Z</time>
      </trkpt>
      <trkpt lat="59.507322770777" lon="17.910716750845">
        <ele>24.6</ele>
        <time>2013-08-17T11:02:38Z</time>
      </trkpt>
      <trkpt lat="59.507478757936" lon="17.910945409077">
        <ele>24.6</ele>
        <time>2013-08-17T11:02:41Z</time>
      </trkpt>
      <trkpt lat="59.5075756527" lon="17.911115394009">
        <ele>25</ele>
        <time>2013-08-17T11:02:43Z</time>
      </trkpt>
      <trkpt lat="59.507628123394" lon="17.911188148901">
        <ele>25.4</ele>
        <time>2013-08-17T11:02:44Z</time>
      </trkpt>
      <trkpt lat="59.507680342631" lon="17.911261239069">
        <ele>25.8</ele>
        <time>2013-08-17T11:02:45Z</time>
      </trkpt>
      <trkpt lat="59.507730466393" lon="17.911334999789">
        <ele>26.2</ele>
        <time>2013-08-17T11:02:46Z</time>
      </trkpt>
      <trkpt lat="59.507783942915" lon="17.911402306446">
        <ele>26.6</ele>
        <time>2013-08-17T11:02:47Z</time>
      </trkpt>
      <trkpt lat="59.507838257627" lon="17.911467014714">
        <ele>26.6</ele>
        <time>2013-08-17T11:02:48Z</time>
      </trkpt>
      <trkpt lat="59.508002961962" lon="17.911630210307">
        <ele>26.6</ele>
        <time>2013-08-17T11:02:51Z</time>
      </trkpt>
      <trkpt lat="59.508124164236" lon="17.911697097869">
        <ele>26.6</ele>
        <time>2013-08-17T11:02:53Z</time>
      </trkpt>
      <trkpt lat="59.50864350676" lon="17.911962804099">
        <ele>26.6</ele>
        <time>2013-08-17T11:03:01Z</time>
      </trkpt>
      <trkpt lat="59.508900914909" lon="17.912186014096">
        <ele>26.6</ele>
        <time>2013-08-17T11:03:05Z</time>
      </trkpt>
      <trkpt lat="59.509013651464" lon="17.912387850248">
        <ele>26.6</ele>
        <time>2013-08-17T11:03:07Z</time>
      </trkpt>
      <trkpt lat="59.509275753477" lon="17.913019929327">
        <ele>26.6</ele>
        <time>2013-08-17T11:03:13Z</time>
      </trkpt>
      <trkpt lat="59.509617399721" lon="17.913891814565">
        <ele>26.6</ele>
        <time>2013-08-17T11:03:21Z</time>
      </trkpt>
      <trkpt lat="59.509663164895" lon="17.913985691845">
        <ele>26.6</ele>
        <time>2013-08-17T11:03:22Z</time>
      </trkpt>
      <trkpt lat="59.509838933338" lon="17.914140002624">
        <ele>26.2</ele>
        <time>2013-08-17T11:03:25Z</time>
      </trkpt>
      <trkpt lat="59.509910095669" lon="17.914156347329">
        <ele>25.8</ele>
        <time>2013-08-17T11:03:26Z</time>
      </trkpt>
      <trkpt lat="59.509980335991" lon="17.914166908523">
        <ele>25.4</ele>
        <time>2013-08-17T11:03:27Z</time>
      </trkpt>
      <trkpt lat="59.510053509978" lon="17.914149222714">
        <ele>25</ele>
        <time>2013-08-17T11:03:28Z</time>
      </trkpt>
      <trkpt lat="59.510138921539" lon="17.914105301558">
        <ele>24.6</ele>
        <time>2013-08-17T11:03:29Z</time>
      </trkpt>
      <trkpt lat="59.510377805689" lon="17.914115695114">
        <ele>24.6</ele>
        <time>2013-08-17T11:03:32Z</time>
      </trkpt>
      <trkpt lat="59.510646445584" lon="17.914159280994">
        <ele>24.6</ele>
        <time>2013-08-17T11:03:35Z</time>
      </trkpt>
      <trkpt lat="59.510742166882" lon="17.914114521648">
        <ele>24.2</ele>
        <time>2013-08-17T11:03:36Z</time>
      </trkpt>
      <trkpt lat="59.510823136036" lon="17.91405400433">
        <ele>23.4</ele>
        <time>2013-08-17T11:03:37Z</time>
      </trkpt>
      <trkpt lat="59.510898070222" lon="17.914009412622">
        <ele>22.8</ele>
        <time>2013-08-17T11:03:38Z</time>
      </trkpt>
      <trkpt lat="59.51096613125" lon="17.913990050433">
        <ele>22</ele>
        <time>2013-08-17T11:03:39Z</time>
      </trkpt>
      <trkpt lat="59.511023882541" lon="17.91400874207">
        <ele>21.4</ele>
        <time>2013-08-17T11:03:40Z</time>
      </trkpt>
      <trkpt lat="59.511074844493" lon="17.914054423425">
        <ele>20.6</ele>
        <time>2013-08-17T11:03:41Z</time>
      </trkpt>
      <trkpt lat="59.511120022934" lon="17.914120808073">
        <ele>20</ele>
        <time>2013-08-17T11:03:42Z</time>
      </trkpt>
      <trkpt lat="59.511162686805" lon="17.914186103074">
        <ele>19.4</ele>
        <time>2013-08-17T11:03:43Z</time>
      </trkpt>
      <trkpt lat="59.51118573703" lon="17.914276376137">
        <ele>18.6</ele>
        <time>2013-08-17T11:03:44Z</time>
      </trkpt>
      <trkpt lat="59.511180456433" lon="17.914357010015">
        <ele>18</ele>
        <time>2013-08-17T11:03:45Z</time>
      </trkpt>
      <trkpt lat="59.51115137124" lon="17.914435045504">
        <ele>18</ele>
        <time>2013-08-17T11:03:46Z</time>
      </trkpt>
      <trkpt lat="59.511061014358" lon="17.914708127806">
        <ele>18</ele>
        <time>2013-08-17T11:03:49Z</time>
      </trkpt>
      <trkpt lat="59.511053554467" lon="17.914930331975">
        <ele>18</ele>
        <time>2013-08-17T11:03:51Z</time>
      </trkpt>
      <trkpt lat="59.511010136225" lon="17.915529973101">
        <ele>18</ele>
        <time>2013-08-17T11:03:56Z</time>
      </trkpt>
      <trkpt lat="59.510991360769" lon="17.916485006787">
        <ele>18</ele>
        <time>2013-08-17T11:04:04Z</time>
      </trkpt>
      <trkpt lat="59.510972752951" lon="17.917268965894">
        <ele>18</ele>
        <time>2013-08-17T11:04:10Z</time>
      </trkpt>
      <trkpt lat="59.510964706327" lon="17.917541796739">
        <ele>18</ele>
        <time>2013-08-17T11:04:12Z</time>
      </trkpt>
      <trkpt lat="59.510952384934" lon="17.917827870986">
        <ele>18</ele>
        <time>2013-08-17T11:04:14Z</time>
      </trkpt>
      <trkpt lat="59.510951630563" lon="17.91796918982">
        <ele>18</ele>
        <time>2013-08-17T11:04:15Z</time>
      </trkpt>
      <trkpt lat="59.510964371051" lon="17.918646195883">
        <ele>18</ele>
        <time>2013-08-17T11:04:20Z</time>
      </trkpt>
      <trkpt lat="59.510962694671" lon="17.919014077474">
        <ele>17.6</ele>
        <time>2013-08-17T11:04:23Z</time>
      </trkpt>
      <trkpt lat="59.510959928644" lon="17.919132848997">
        <ele>17.2</ele>
        <time>2013-08-17T11:04:24Z</time>
      </trkpt>
      <trkpt lat="59.510958252264" lon="17.919254721823">
        <ele>16.8</ele>
        <time>2013-08-17T11:04:25Z</time>
      </trkpt>
      <trkpt lat="59.510961353567" lon="17.919378019572">
        <ele>16.4</ele>
        <time>2013-08-17T11:04:26Z</time>
      </trkpt>
      <trkpt lat="59.510964790146" lon="17.919499640941">
        <ele>16</ele>
        <time>2013-08-17T11:04:27Z</time>
      </trkpt>
      <trkpt lat="59.510964119594" lon="17.919622184319">
        <ele>16</ele>
        <time>2013-08-17T11:04:28Z</time>
      </trkpt>
      <trkpt lat="59.51096445487" lon="17.920140185739">
        <ele>16</ele>
        <time>2013-08-17T11:04:32Z</time>
      </trkpt>
      <trkpt lat="59.510968226725" lon="17.920940741008">
        <ele>16</ele>
        <time>2013-08-17T11:04:38Z</time>
      </trkpt>
      <trkpt lat="59.511039389056" lon="17.921073091209">
        <ele>16</ele>
        <time>2013-08-17T11:04:40Z</time>
      </trkpt>
      <trkpt lat="59.511217336793" lon="17.921025984931">
        <ele>16</ele>
        <time>2013-08-17T11:04:44Z</time>
      </trkpt>
      <trkpt lat="59.511265700356" lon="17.920985919449">
        <ele>16</ele>
        <time>2013-08-17T11:04:45Z</time>
      </trkpt>
      <trkpt lat="59.511318841602" lon="17.920949290546">
        <ele>16</ele>
        <time>2013-08-17T11:04:46Z</time>
      </trkpt>
      <trkpt lat="59.511480109358" lon="17.920856922008">
        <ele>16</ele>
        <time>2013-08-17T11:04:49Z</time>
      </trkpt>
      <trkpt lat="59.51183281971" lon="17.920622228808">
        <ele>16.4</ele>
        <time>2013-08-17T11:04:55Z</time>
      </trkpt>
      <trkpt lat="59.511895600141" lon="17.920558861644">
        <ele>16.8</ele>
        <time>2013-08-17T11:04:56Z</time>
      </trkpt>
      <trkpt lat="59.511962655341" lon="17.920504630751">
        <ele>17.2</ele>
        <time>2013-08-17T11:04:57Z</time>
      </trkpt>
      <trkpt lat="59.512032811844" lon="17.92045861412">
        <ele>17.6</ele>
        <time>2013-08-17T11:04:58Z</time>
      </trkpt>
      <trkpt lat="59.51210439327" lon="17.920417794267">
        <ele>18</ele>
        <time>2013-08-17T11:04:59Z</time>
      </trkpt>
      <trkpt lat="59.512177064343" lon="17.920383428477">
        <ele>18</ele>
        <time>2013-08-17T11:05:00Z</time>
      </trkpt>
      <trkpt lat="59.512250489787" lon="17.920361132623">
        <ele>17.6</ele>
        <time>2013-08-17T11:05:01Z</time>
      </trkpt>
      <trkpt lat="59.512326429801" lon="17.920354762379">
        <ele>17.2</ele>
        <time>2013-08-17T11:05:02Z</time>
      </trkpt>
      <trkpt lat="59.512397592132" lon="17.920355600569">
        <ele>16.6</ele>
        <time>2013-08-17T11:05:03Z</time>
      </trkpt>
      <trkpt lat="59.512468922101" lon="17.920357947501">
        <ele>16.2</ele>
        <time>2013-08-17T11:05:04Z</time>
      </trkpt>
      <trkpt lat="59.512540671165" lon="17.920364904478">
        <ele>15.8</ele>
        <time>2013-08-17T11:05:05Z</time>
      </trkpt>
      <trkpt lat="59.513041657328" lon="17.920468085667">
        <ele>15.8</ele>
        <time>2013-08-17T11:05:12Z</time>
      </trkpt>
      <trkpt lat="59.513392607481" lon="17.920554419237">
        <ele>15.8</ele>
        <time>2013-08-17T11:05:18Z</time>
      </trkpt>
      <trkpt lat="59.513638448608" lon="17.920562465861">
        <ele>15.8</ele>
        <time>2013-08-17T11:05:24Z</time>
      </trkpt>
      <trkpt lat="59.513661415014" lon="17.920524328216">
        <ele>15.8</ele>
        <time>2013-08-17T11:05:26Z</time>
      </trkpt>
      <trkpt lat="59.513668874905" lon="17.920498344326">
        <ele>15.8</ele>
        <time>2013-08-17T11:05:27Z</time>
      </trkpt>
      <trkpt lat="59.513680777203" lon="17.920278570908">
        <ele>15.8</ele>
        <time>2013-08-17T11:05:30Z</time>
      </trkpt>
      <trkpt lat="59.513697121908" lon="17.919994759774">
        <ele>15.8</ele>
        <time>2013-08-17T11:05:33Z</time>
      </trkpt>
      <trkpt lat="59.513760572891" lon="17.919842041556">
        <ele>15.8</ele>
        <time>2013-08-17T11:05:35Z</time>
      </trkpt>
      <trkpt lat="59.513896275852" lon="17.919740536747">
        <ele>15.8</ele>
        <time>2013-08-17T11:05:38Z</time>
      </trkpt>
      <trkpt lat="59.513938688266" lon="17.919730897562">
        <ele>15.8</ele>
        <time>2013-08-17T11:05:39Z</time>
      </trkpt>
      <trkpt lat="59.514031056804" lon="17.919718324712">
        <ele>15.8</ele>
        <time>2013-08-17T11:05:41Z</time>
      </trkpt>
      <trkpt lat="59.514074223589" lon="17.91973441796">
        <ele>15.4</ele>
        <time>2013-08-17T11:05:42Z</time>
      </trkpt>
      <trkpt lat="59.514107164456" lon="17.919790492871">
        <ele>15</ele>
        <time>2013-08-17T11:05:43Z</time>
      </trkpt>
      <trkpt lat="59.514128203025" lon="17.919875485337">
        <ele>14.6</ele>
        <time>2013-08-17T11:05:44Z</time>
      </trkpt>
      <trkpt lat="59.514132310156" lon="17.919972380101">
        <ele>14</ele>
        <time>2013-08-17T11:05:45Z</time>
      </trkpt>
      <trkpt lat="59.514125520817" lon="17.920070951245">
        <ele>13.6</ele>
        <time>2013-08-17T11:05:46Z</time>
      </trkpt>
      <trkpt lat="59.514105488076" lon="17.92025744852">
        <ele>13.6</ele>
        <time>2013-08-17T11:05:48Z</time>
      </trkpt>
      <trkpt lat="59.514093501959" lon="17.920473030988">
        <ele>13.6</ele>
        <time>2013-08-17T11:05:51Z</time>
      </trkpt>
      <trkpt lat="59.514102051497" lon="17.92051812561">
        <ele>13.6</ele>
        <time>2013-08-17T11:05:52Z</time>
      </trkpt>
      <trkpt lat="59.514156450028" lon="17.920561795309">
        <ele>13.6</ele>
        <time>2013-08-17T11:05:54Z</time>
      </trkpt>
      <trkpt lat="59.514243705607" lon="17.920806379151">
        <ele>13.6</ele>
        <time>2013-08-17T11:05:57Z</time>
      </trkpt>
      <trkpt lat="59.514241861589" lon="17.921247602367">
        <ele>13.6</ele>
        <time>2013-08-17T11:06:01Z</time>
      </trkpt>
      <trkpt lat="59.514237251544" lon="17.921352459936">
        <ele>13.6</ele>
        <time>2013-08-17T11:06:02Z</time>
      </trkpt>
      <trkpt lat="59.514219230459" lon="17.921749342901">
        <ele>14</ele>
        <time>2013-08-17T11:06:06Z</time>
      </trkpt>
      <trkpt lat="59.514209507455" lon="17.921848416959">
        <ele>14.6</ele>
        <time>2013-08-17T11:06:07Z</time>
      </trkpt>
      <trkpt lat="59.514196850786" lon="17.921947993931">
        <ele>15</ele>
        <time>2013-08-17T11:06:08Z</time>
      </trkpt>
      <trkpt lat="59.514180506081" lon="17.922049414921">
        <ele>15.4</ele>
        <time>2013-08-17T11:06:09Z</time>
      </trkpt>
      <trkpt lat="59.51416131153" lon="17.922152344653">
        <ele>15.8</ele>
        <time>2013-08-17T11:06:10Z</time>
      </trkpt>
      <trkpt lat="59.51406408149" lon="17.922528189049">
        <ele>15.8</ele>
        <time>2013-08-17T11:06:14Z</time>
      </trkpt>
      <trkpt lat="59.514030386252" lon="17.922610164031">
        <ele>15.8</ele>
        <time>2013-08-17T11:06:15Z</time>
      </trkpt>
      <trkpt lat="59.513904490114" lon="17.922840666281">
        <ele>15.8</ele>
        <time>2013-08-17T11:06:18Z</time>
      </trkpt>
      <trkpt lat="59.513798710536" lon="17.922957342329">
        <ele>15.8</ele>
        <time>2013-08-17T11:06:20Z</time>
      </trkpt>
      <trkpt lat="59.513680022832" lon="17.923050549057">
        <ele>15.8</ele>
        <time>2013-08-17T11:06:22Z</time>
      </trkpt>
      <trkpt lat="59.513556389807" lon="17.92305532674">
        <ele>15.8</ele>
        <time>2013-08-17T11:06:24Z</time>
      </trkpt>
      <trkpt lat="59.513306776825" lon="17.923019536027">
        <ele>15.8</ele>
        <time>2013-08-17T11:06:29Z</time>
      </trkpt>
      <trkpt lat="59.513270902293" lon="17.923058595681">
        <ele>16.6</ele>
        <time>2013-08-17T11:06:30Z</time>
      </trkpt>
      <trkpt lat="59.513249696086" lon="17.92312322013">
        <ele>17</ele>
        <time>2013-08-17T11:06:31Z</time>
      </trkpt>
      <trkpt lat="59.513238045245" lon="17.923196226479">
        <ele>17.4</ele>
        <time>2013-08-17T11:06:32Z</time>
      </trkpt>
      <trkpt lat="59.513230585354" lon="17.923275938348">
        <ele>17.8</ele>
        <time>2013-08-17T11:06:33Z</time>
      </trkpt>
      <trkpt lat="59.513225807671" lon="17.923360679357">
        <ele>17.8</ele>
        <time>2013-08-17T11:06:34Z</time>
      </trkpt>
      <trkpt lat="59.513210384975" lon="17.923648849079">
        <ele>17.8</ele>
        <time>2013-08-17T11:06:37Z</time>
      </trkpt>
      <trkpt lat="59.513193956451" lon="17.923942550855">
        <ele>18.4</ele>
        <time>2013-08-17T11:06:40Z</time>
      </trkpt>
      <trkpt lat="59.513188843492" lon="17.924039277981">
        <ele>18.8</ele>
        <time>2013-08-17T11:06:41Z</time>
      </trkpt>
      <trkpt lat="59.513184401085" lon="17.924139525505">
        <ele>19.2</ele>
        <time>2013-08-17T11:06:42Z</time>
      </trkpt>
      <trkpt lat="59.513181551239" lon="17.924232648414">
        <ele>19.6</ele>
        <time>2013-08-17T11:06:43Z</time>
      </trkpt>
      <trkpt lat="59.513177947022" lon="17.924329040264">
        <ele>20</ele>
        <time>2013-08-17T11:06:44Z</time>
      </trkpt>
      <trkpt lat="59.513154393883" lon="17.924904709156">
        <ele>20</ele>
        <time>2013-08-17T11:06:49Z</time>
      </trkpt>
      <trkpt lat="59.513136959531" lon="17.92532011612">
        <ele>19.6</ele>
        <time>2013-08-17T11:06:52Z</time>
      </trkpt>
      <trkpt lat="59.513128996726" lon="17.925464033343">
        <ele>19</ele>
        <time>2013-08-17T11:06:53Z</time>
      </trkpt>
      <trkpt lat="59.513120195731" lon="17.925613314982">
        <ele>18.6</ele>
        <time>2013-08-17T11:06:54Z</time>
      </trkpt>
      <trkpt lat="59.513109550718" lon="17.925764859734">
        <ele>17.8</ele>
        <time>2013-08-17T11:06:55Z</time>
      </trkpt>
      <trkpt lat="59.513084907932" lon="17.926237431256">
        <ele>17.4</ele>
        <time>2013-08-17T11:06:58Z</time>
      </trkpt>
      <trkpt lat="59.513079375878" lon="17.926382857221">
        <ele>17</ele>
        <time>2013-08-17T11:06:59Z</time>
      </trkpt>
      <trkpt lat="59.513072670358" lon="17.926525098064">
        <ele>16.6</ele>
        <time>2013-08-17T11:07:00Z</time>
      </trkpt>
      <trkpt lat="59.513066383933" lon="17.926668260916">
        <ele>16.2</ele>
        <time>2013-08-17T11:07:01Z</time>
      </trkpt>
      <trkpt lat="59.513057834395" lon="17.92681544708">
        <ele>15.8</ele>
        <time>2013-08-17T11:07:02Z</time>
      </trkpt>
      <trkpt lat="59.513048111391" lon="17.926964141986">
        <ele>15.2</ele>
        <time>2013-08-17T11:07:03Z</time>
      </trkpt>
      <trkpt lat="59.513041154414" lon="17.927116441109">
        <ele>14.8</ele>
        <time>2013-08-17T11:07:04Z</time>
      </trkpt>
      <trkpt lat="59.513037801654" lon="17.927268153499">
        <ele>14.2</ele>
        <time>2013-08-17T11:07:05Z</time>
      </trkpt>
      <trkpt lat="59.513033443066" lon="17.927428666884">
        <ele>13.8</ele>
        <time>2013-08-17T11:07:06Z</time>
      </trkpt>
      <trkpt lat="59.513031263772" lon="17.927575433953">
        <ele>13.2</ele>
        <time>2013-08-17T11:07:07Z</time>
      </trkpt>
      <trkpt lat="59.513038891301" lon="17.927706610688">
        <ele>13.2</ele>
        <time>2013-08-17T11:07:08Z</time>
      </trkpt>
      <trkpt lat="59.513055571282" lon="17.927821023623">
        <ele>13.2</ele>
        <time>2013-08-17T11:07:09Z</time>
      </trkpt>
      <trkpt lat="59.513162021412" lon="17.927953457643">
        <ele>13.2</ele>
        <time>2013-08-17T11:07:12Z</time>
      </trkpt>
      <trkpt lat="59.513308704662" lon="17.92781708413">
        <ele>13.2</ele>
        <time>2013-08-17T11:07:15Z</time>
      </trkpt>
      <trkpt lat="59.51334910542" lon="17.927750448025">
        <ele>13.2</ele>
        <time>2013-08-17T11:07:16Z</time>
      </trkpt>
      <trkpt lat="59.513422447045" lon="17.927648943216">
        <ele>13.2</ele>
        <time>2013-08-17T11:07:18Z</time>
      </trkpt>
      <trkpt lat="59.513504757303" lon="17.92760837482">
        <ele>13.2</ele>
        <time>2013-08-17T11:07:20Z</time>
      </trkpt>
      <trkpt lat="59.513828131005" lon="17.927565878587">
        <ele>13.2</ele>
        <time>2013-08-17T11:07:26Z</time>
      </trkpt>
      <trkpt lat="59.513978753748" lon="17.927548360416">
        <ele>13.2</ele>
        <time>2013-08-17T11:07:29Z</time>
      </trkpt>
      <trkpt lat="59.514016053203" lon="17.927574260487">
        <ele>12.8</ele>
        <time>2013-08-17T11:07:30Z</time>
      </trkpt>
    </trkseg>
  </trk>
</gpx>